Data for 07/29/2010

Time Sea-Level Adjusted Pressure Absolute Pressure Temperature Relative Humidity Dew Point Precipitation   
(mb) (inHg) (mb) (inHg) (C) (F) (%) (C) (F) (mm) (in)
00:01 1024 30.24 853 25.19 12.8 55.1 87 10.7 51.3 13.22 0.52
00:02 1023 30.21 853 25.19 12.7 54.8 88 10.7 51.3 13.13 0.517
00:03 1023 30.21 853 25.19 12.6 54.7 88 10.7 51.3 13.04 0.513
00:04 1023 30.21 853 25.19 12.6 54.8 87 10.6 51.1 13.04 0.513
00:05 1023 30.21 853 25.19 12.6 54.7 87 10.5 51 12.99 0.511
00:06 1023 30.21 853 25.19 12.5 54.5 88 10.6 51 12.93 0.509
00:07 1023 30.21 853 25.19 12.5 54.5 87 10.5 50.9 12.81 0.504
00:08 1023 30.21 853 25.19 12.5 54.5 87 10.4 50.8 12.78 0.503
00:09 1024 30.24 853 25.19 12.5 54.4 87 10.4 50.7 12.73 0.501
00:10 1024 30.24 853 25.19 12.5 54.5 87 10.4 50.7 12.81 0.504
00:11 1024 30.24 853 25.19 12.7 54.8 85 10.3 50.5 12.94 0.509
00:12 1024 30.24 853 25.19 12.8 55 84 10.2 50.4 12.95 0.51
00:13 1024 30.24 853 25.19 12.9 55.3 82 10 50 13.12 0.517
00:14 1024 30.24 853 25.19 13.2 55.8 81 10 50 13.33 0.525
00:15 1024 30.24 853 25.19 13.2 55.8 81 10 50 13.37 0.526
00:16 1024 30.24 853 25.19 13.2 55.8 81 10 50 13.44 0.529
00:17 1024 30.24 853 25.19 13.2 55.7 81 10 49.9 13.42 0.528
00:18 1024 30.24 853 25.19 13.3 55.9 80 9.9 49.9 13.43 0.529
00:19 1023 30.21 853 25.19 13.4 56 80 9.9 49.9 13.52 0.532
00:20 1023 30.21 853 25.19 13.4 56.1 80 9.9 49.9 13.59 0.535
00:21 1023 30.21 853 25.19 13.4 56.1 80 10 50.1 13.56 0.534
00:22 1023 30.21 853 25.19 13.2 55.8 81 10 50 13.5 0.531
00:23 1023 30.21 853 25.19 13.1 55.7 81 10 50.1 13.4 0.528
00:24 1023 30.21 853 25.19 13 55.5 82 10 50.1 13.36 0.526
00:25 1023 30.21 853 25.19 13 55.4 82 10.1 50.1 13.33 0.525
00:26 1023 30.21 853 25.19 13.1 55.5 82 10.1 50.1 13.33 0.525
00:27 1023 30.21 853 25.19 13 55.5 82 10 50 13.35 0.526
00:28 1023 30.21 853 25.19 13.1 55.5 81 10 49.9 13.35 0.526
00:29 1023 30.21 853 25.19 13.1 55.6 81 9.9 49.8 13.35 0.526
00:30 1023 30.21 853 25.19 13.1 55.6 81 9.9 49.8 13.39 0.527
00:31 1023 30.21 853 25.19 13.1 55.6 81 9.9 49.9 13.39 0.527
00:32 1023 30.21 853 25.19 13 55.4 82 10 49.9 13.27 0.522
00:33 1023 30.21 853 25.19 12.9 55.2 82 10 49.9 13.19 0.519
00:34 1023 30.21 853 25.19 12.9 55.1 82 10 49.9 13.2 0.52
00:35 1023 30.21 853 25.19 12.8 55.1 82 9.9 49.9 13.13 0.517
00:36 1023 30.21 853 25.19 12.8 55 82 9.8 49.7 13.11 0.516
00:37 1023 30.21 853 25.19 12.7 54.8 83 9.8 49.7 13.05 0.514
00:38 1023 30.21 853 25.19 12.6 54.7 83 9.8 49.6 13 0.512
00:39 1023 30.21 853 25.19 12.6 54.7 83 9.8 49.6 12.98 0.511
00:40 1023 30.21 853 25.19 12.4 54.3 84 9.7 49.5 12.84 0.506
00:41 1023 30.21 853 25.19 12.3 54.1 85 9.8 49.6 12.65 0.498
00:42 1023 30.21 853 25.19 12.1 53.8 85 9.8 49.6 12.53 0.493
00:43 1023 30.21 853 25.19 12.1 53.8 86 9.9 49.7 12.5 0.492
00:44 1023 30.21 853 25.19 12.1 53.8 86 9.8 49.7 12.5 0.492
00:45 1023 30.21 853 25.19 12.1 53.8 85 9.8 49.6 12.53 0.493
00:46 1023 30.21 853 25.19 12.2 54 85 9.8 49.6 12.58 0.495
00:47 1023 30.21 853 25.19 12.3 54.1 85 9.8 49.7 12.63 0.497
00:48 1023 30.21 853 25.19 12.4 54.2 85 9.9 49.7 12.7 0.5
00:49 1023 30.21 853 25.19 12.4 54.3 84 9.8 49.7 12.71 0.5
00:50 1023 30.21 853 25.19 12.4 54.3 84 9.8 49.6 12.76 0.502
00:51 1023 30.21 853 25.19 12.3 54.2 84 9.7 49.5 12.68 0.499
00:52 1023 30.21 853 25.19 12.2 54 84 9.7 49.5 12.61 0.496
00:53 1023 30.21 853 25.19 12.2 53.9 85 9.7 49.5 12.53 0.493
00:54 1023 30.21 853 25.19 12.1 53.8 85 9.7 49.5 12.45 0.49
00:55 1023 30.21 852 25.16 12 53.6 86 9.7 49.5 12.39 0.488
00:56 1023 30.21 853 25.19 11.9 53.4 86 9.7 49.4 12.29 0.484
00:57 1023 30.21 853 25.19 11.8 53.2 86 9.6 49.2 12.14 0.478
00:58 1023 30.21 853 25.19 11.6 52.9 87 9.6 49.2 12.02 0.473
00:59 1023 30.21 852 25.16 11.6 52.9 87 9.6 49.3 11.95 0.47
01:00 1023 30.21 853 25.19 11.6 52.8 88 9.6 49.3 11.94 0.47
01:01 1023 30.21 853 25.19 11.5 52.8 88 9.5 49.2 11.89 0.468
01:02 1023 30.21 853 25.19 11.5 52.7 88 9.6 49.2 11.86 0.467
01:03 1023 30.21 853 25.19 11.5 52.6 88 9.5 49.1 11.84 0.466
01:04 1023 30.21 853 25.19 11.4 52.5 88 9.5 49.1 11.74 0.462
01:05 1023 30.21 853 25.19 11.4 52.5 88 9.6 49.2 11.76 0.463
01:06 1023 30.21 853 25.19 11.4 52.5 88 9.5 49.2 11.74 0.462
01:07 1023 30.21 853 25.19 11.5 52.7 88 9.5 49.1 11.76 0.463
01:08 1023 30.21 853 25.19 11.5 52.7 87 9.4 49 11.78 0.464
01:09 1023 30.21 853 25.19 11.4 52.6 87 9.4 49 11.72 0.461
01:10 1023 30.21 853 25.19 11.3 52.4 88 9.4 48.9 11.63 0.458
01:11 1023 30.21 853 25.19 11.3 52.3 88 9.3 48.7 11.57 0.456
01:12 1023 30.21 853 25.19 11.2 52.2 88 9.3 48.7 11.54 0.454
01:13 1023 30.21 853 25.19 11.2 52.1 87 9.1 48.4 11.45 0.451
01:14 1023 30.21 853 25.19 11.1 52 88 9.2 48.6 11.44 0.45
01:15 1023 30.21 853 25.19 11.1 51.9 89 9.2 48.6 11.41 0.449
01:16 1023 30.21 853 25.19 11 51.8 89 9.2 48.6 11.37 0.448
01:17 1023 30.21 853 25.19 11 51.8 88 9.2 48.5 11.32 0.446
01:18 1023 30.21 853 25.19 11 51.7 89 9.2 48.6 11.32 0.446
01:19 1023 30.21 853 25.19 11 51.7 89 9.2 48.6 11.31 0.445
01:20 1023 30.21 853 25.19 11 51.8 89 9.3 48.7 11.29 0.444
01:21 1023 30.21 853 25.19 11.1 52 89 9.4 48.9 11.4 0.449
01:22 1023 30.21 853 25.19 11.3 52.3 88 9.4 49 11.52 0.454
01:23 1023 30.21 853 25.19 11.4 52.5 88 9.4 49 11.64 0.458
01:24 1023 30.21 853 25.19 11.5 52.6 88 9.5 49.1 11.68 0.46
01:25 1023 30.21 853 25.19 11.4 52.6 87 9.4 48.9 11.69 0.46
01:26 1023 30.21 853 25.19 11.4 52.5 87 9.4 48.8 11.65 0.459
01:27 1023 30.21 853 25.19 11.3 52.3 88 9.3 48.8 11.54 0.454
01:28 1023 30.21 853 25.19 11.1 52.1 89 9.3 48.8 11.46 0.451
01:29 1023 30.21 853 25.19 11.1 52 89 9.4 49 11.39 0.448
01:30 1023 30.21 853 25.19 11.1 51.9 89 9.4 48.9 11.4 0.449
01:31 1023 30.21 853 25.19 11.1 51.9 90 9.4 49 11.43 0.45
01:32 1023 30.21 853 25.19 11.1 51.9 90 9.4 49 11.38 0.448
01:33 1023 30.21 853 25.19 11.1 51.9 90 9.4 49 11.44 0.45
01:34 1023 30.21 853 25.19 11.1 52 90 9.5 49.1 11.47 0.452
01:35 1023 30.21 853 25.19 11.2 52.2 89 9.5 49.1 11.51 0.453
01:36 1023 30.21 852 25.16 11.3 52.4 89 9.6 49.2 11.63 0.458
01:37 1023 30.21 852 25.16 11.4 52.5 88 9.6 49.2 11.64 0.458
01:38 1023 30.21 852 25.16 11.4 52.5 88 9.5 49.1 11.68 0.46
01:39 1023 30.21 852 25.16 11.3 52.3 88 9.4 49 11.62 0.457
01:40 1023 30.21 852 25.16 11.2 52.2 89 9.4 49 11.55 0.455
01:41 1023 30.21 852 25.16 11.2 52.1 88 9.3 48.8 11.5 0.453
01:42 1023 30.21 852 25.16 11.1 51.9 90 9.4 48.9 11.36 0.447
01:43 1023 30.21 852 25.16 11 51.8 90 9.4 49 11.39 0.448
01:44 1023 30.21 852 25.16 11.1 52 90 9.5 49.1 11.41 0.449
01:45 1023 30.21 852 25.16 11.1 52.1 89 9.4 48.9 11.42 0.45
01:46 1023 30.21 852 25.16 11.2 52.1 89 9.4 49 11.4 0.449
01:47 1023 30.21 853 25.19 11.2 52.1 89 9.4 49 11.45 0.451
01:48 1023 30.21 853 25.19 11.2 52.1 89 9.5 49 11.43 0.45
01:49 1023 30.21 853 25.19 11.1 52.1 89 9.4 48.9 11.42 0.45
01:50 1023 30.21 853 25.19 11.2 52.1 89 9.5 49.1 11.43 0.45
01:51 1023 30.21 853 25.19 11.3 52.3 89 9.5 49.1 11.52 0.454
01:52 1023 30.21 853 25.19 11.3 52.4 88 9.5 49.1 11.59 0.456
01:53 1023 30.21 853 25.19 11.4 52.4 88 9.5 49.1 11.58 0.456
01:54 1023 30.21 853 25.19 11.4 52.4 88 9.5 49.2 11.59 0.456
01:55 1023 30.21 853 25.19 11.4 52.5 88 9.5 49.1 11.65 0.459
01:56 1023 30.21 853 25.19 11.4 52.4 88 9.5 49 11.59 0.456
01:57 1023 30.21 853 25.19 11.3 52.4 88 9.4 49 11.64 0.458
01:58 1023 30.21 853 25.19 11.2 52.2 88 9.3 48.7 11.53 0.454
01:59 1023 30.21 853 25.19 11.1 52 89 9.3 48.7 11.4 0.449
02:00 1023 30.21 853 25.19 11 51.8 89 9.3 48.7 11.31 0.445
02:01 1023 30.21 853 25.19 11 51.8 89 9.2 48.6 11.3 0.445
02:02 1023 30.21 853 25.19 10.9 51.6 89 9.2 48.5 11.25 0.443
02:03 1023 30.21 853 25.19 10.9 51.6 89 9.1 48.4 11.18 0.44
02:04 1023 30.21 853 25.19 10.8 51.5 89 9.1 48.4 11.14 0.439
02:05 1023 30.21 853 25.19 10.8 51.4 90 9.1 48.5 11.08 0.436
02:06 1024 30.24 853 25.19 10.7 51.3 90 9.1 48.3 11.09 0.437
02:07 1023 30.21 853 25.19 10.7 51.3 90 9.1 48.4 11.08 0.436
02:08 1023 30.21 853 25.19 10.8 51.4 89 9.1 48.4 11.1 0.437
02:09 1023 30.21 853 25.19 10.8 51.5 89 9.1 48.3 11.09 0.437
02:10 1023 30.21 853 25.19 10.8 51.4 89 9 48.2 11.11 0.437
02:11 1023 30.21 853 25.19 10.8 51.4 89 9 48.2 11.07 0.436
02:12 1023 30.21 853 25.19 10.8 51.4 88 9 48.1 11.08 0.436
02:13 1023 30.21 853 25.19 10.8 51.4 88 9 48.1 11.04 0.435
02:14 1023 30.21 853 25.19 10.7 51.3 89 8.9 48 10.99 0.433
02:15 1023 30.21 853 25.19 10.6 51.1 89 8.9 48 10.9 0.429
02:16 1023 30.21 853 25.19 10.6 51.1 90 9 48.1 10.91 0.43
02:17 1023 30.21 853 25.19 10.7 51.2 89 8.9 48.1 10.97 0.432
02:18 1023 30.21 853 25.19 10.7 51.3 89 9 48.2 11 0.433
02:19 1023 30.21 853 25.19 10.8 51.4 88 9 48.1 11.04 0.435
02:20 1023 30.21 853 25.19 10.8 51.5 88 9 48.2 11.03 0.434
02:21 1023 30.21 853 25.19 10.8 51.5 89 9 48.3 11.06 0.435
02:22 1023 30.21 853 25.19 10.9 51.6 88 9 48.2 11.15 0.439
02:23 1023 30.21 853 25.19 11 51.8 88 9.1 48.4 11.21 0.441
02:24 1023 30.21 853 25.19 11.2 52.2 87 9.1 48.4 11.47 0.452
02:25 1023 30.21 853 25.19 11.5 52.6 86 9.2 48.6 11.63 0.458
02:26 1023 30.21 853 25.19 11.7 53 85 9.2 48.6 11.79 0.464
02:27 1023 30.21 853 25.19 11.8 53.2 84 9.2 48.6 11.93 0.47
02:28 1023 30.21 853 25.19 11.8 53.2 84 9.1 48.4 11.9 0.469
02:29 1023 30.21 852 25.16 11.7 53.1 85 9.3 48.8 11.89 0.468
02:30 1023 30.21 852 25.16 11.6 52.9 86 9.3 48.8 11.89 0.468
02:31 1023 30.21 852 25.16 11.6 52.8 86 9.4 48.9 11.81 0.465
02:32 1023 30.21 852 25.16 11.5 52.7 86 9.3 48.8 11.8 0.465
02:33 1023 30.21 852 25.16 11.5 52.6 87 9.3 48.8 11.73 0.462
02:34 1023 30.21 852 25.16 11.4 52.6 87 9.3 48.7 11.72 0.461
02:35 1023 30.21 852 25.16 11.4 52.4 87 9.2 48.6 11.66 0.459
02:36 1023 30.21 852 25.16 11.2 52.2 88 9.2 48.6 11.57 0.456
02:37 1023 30.21 852 25.16 11.2 52.1 88 9.2 48.6 11.51 0.453
02:38 1023 30.21 852 25.16 11.1 51.9 88 9.2 48.5 11.41 0.449
02:39 1023 30.21 852 25.16 11 51.8 88 9.2 48.5 11.37 0.448
02:40 1023 30.21 852 25.16 10.9 51.6 89 9.1 48.5 11.28 0.444
02:41 1023 30.21 852 25.16 10.9 51.6 89 9.2 48.6 11.27 0.444
02:42 1023 30.21 852 25.16 10.9 51.6 89 9.2 48.6 11.27 0.444
02:43 1023 30.21 852 25.16 11 51.8 89 9.3 48.7 11.28 0.444
02:44 1023 30.21 852 25.16 11.1 51.9 88 9.2 48.6 11.32 0.446
02:45 1023 30.21 852 25.16 11.1 52 88 9.2 48.6 11.37 0.448
02:46 1023 30.21 852 25.16 11.2 52.1 88 9.2 48.6 11.35 0.447
02:47 1023 30.21 852 25.16 11.2 52.2 88 9.3 48.7 11.44 0.45
02:48 1023 30.21 852 25.16 11.3 52.3 87 9.3 48.7 11.45 0.451
02:49 1023 30.21 852 25.16 11.3 52.3 88 9.3 48.7 11.48 0.452
02:50 1023 30.21 852 25.16 11.3 52.3 87 9.2 48.6 11.54 0.454
02:51 1023 30.21 852 25.16 11.3 52.3 88 9.3 48.7 11.55 0.455
02:52 1023 30.21 852 25.16 11.3 52.3 87 9.2 48.6 11.54 0.454
02:53 1023 30.21 852 25.16 11.3 52.3 88 9.3 48.8 11.53 0.454
02:54 1023 30.21 852 25.16 11.2 52.2 88 9.4 48.8 11.56 0.455
02:55 1023 30.21 852 25.16 11.3 52.3 88 9.4 48.9 11.53 0.454
02:56 1023 30.21 852 25.16 11.3 52.4 87 9.3 48.8 11.62 0.457
02:57 1023 30.21 852 25.16 11.4 52.5 87 9.4 48.8 11.66 0.459
02:58 1023 30.21 852 25.16 11.5 52.8 86 9.3 48.7 11.78 0.464
02:59 1023 30.21 852 25.16 11.7 53 85 9.3 48.7 11.85 0.467
03:00 1023 30.21 852 25.16 11.7 53.1 85 9.3 48.7 11.89 0.468
03:01 1023 30.21 852 25.16 11.6 52.9 85 9.3 48.7 11.85 0.467
03:02 1023 30.21 852 25.16 11.6 52.9 85 9.3 48.7 11.83 0.466
03:03 1023 30.21 852 25.16 11.6 52.8 86 9.3 48.7 11.81 0.465
03:04 1023 30.21 852 25.16 11.5 52.7 86 9.3 48.8 11.8 0.465
03:05 1023 30.21 852 25.16 11.5 52.6 87 9.3 48.8 11.77 0.463
03:06 1023 30.21 852 25.16 11.4 52.5 87 9.3 48.8 11.73 0.462
03:07 1023 30.21 852 25.16 11.4 52.5 87 9.3 48.8 11.63 0.458
03:08 1023 30.21 852 25.16 11.4 52.5 87 9.3 48.7 11.67 0.459
03:09 1023 30.21 852 25.16 11.3 52.4 87 9.3 48.7 11.65 0.459
03:10 1023 30.21 852 25.16 11.3 52.4 87 9.3 48.7 11.62 0.457
03:11 1023 30.21 852 25.16 11.3 52.3 87 9.2 48.6 11.58 0.456
03:12 1023 30.21 852 25.16 11.3 52.3 87 9.2 48.5 11.57 0.456
03:13 1023 30.21 852 25.16 11.3 52.4 86 9.1 48.4 11.58 0.456
03:14 1023 30.21 852 25.16 11.4 52.4 85 9 48.2 11.68 0.46
03:15 1023 30.21 852 25.16 11.4 52.5 86 9.1 48.4 11.65 0.459
03:16 1023 30.21 852 25.16 11.4 52.5 86 9.1 48.4 11.63 0.458
03:17 1023 30.21 852 25.16 11.3 52.3 86 9 48.3 11.57 0.456
03:18 1023 30.21 852 25.16 11.3 52.3 86 9 48.2 11.57 0.456
03:19 1023 30.21 852 25.16 11.3 52.3 86 9 48.2 11.54 0.454
03:20 1023 30.21 852 25.16 11.3 52.4 85 8.9 48.1 11.59 0.456
03:21 1023 30.21 852 25.16 11.4 52.6 84 8.9 48 11.63 0.458
03:22 1023 30.21 852 25.16 11.5 52.7 84 8.9 48 11.69 0.46
03:23 1023 30.21 852 25.16 11.5 52.6 84 8.9 47.9 11.64 0.458
03:24 1023 30.21 852 25.16 11.6 52.9 84 8.9 48.1 11.76 0.463
03:25 1023 30.21 852 25.16 11.8 53.2 83 8.9 48 11.92 0.469
03:26 1023 30.21 852 25.16 11.9 53.5 82 8.9 48.1 12.05 0.474
03:27 1023 30.21 852 25.16 12 53.6 81 8.9 48 12.17 0.479
03:28 1023 30.21 852 25.16 12.1 53.7 81 8.9 48 12.22 0.481
03:29 1023 30.21 852 25.16 12 53.6 81 8.9 48 12.23 0.481
03:30 1023 30.21 852 25.16 11.9 53.5 81 8.9 48 12.17 0.479
03:31 1023 30.21 852 25.16 11.8 53.3 82 8.9 48 12.14 0.478
03:32 1023 30.21 852 25.16 11.8 53.2 82 8.9 48 12.05 0.474
03:33 1023 30.21 852 25.16 11.7 53.1 83 8.9 48 12.03 0.474
03:34 1023 30.21 852 25.16 11.7 53.1 83 8.9 48.1 12.01 0.473
03:35 1023 30.21 852 25.16 11.7 53 83 8.9 48 12 0.472
03:36 1023 30.21 852 25.16 11.7 53 83 8.9 48 12.01 0.473
03:37 1023 30.21 852 25.16 11.7 53 83 8.8 47.9 12.02 0.473
03:38 1023 30.21 852 25.16 11.7 53.1 83 8.9 48 11.98 0.472
03:39 1023 30.21 853 25.19 11.7 53.1 82 8.8 47.9 12 0.472
03:40 1023 30.21 853 25.19 11.8 53.2 82 8.9 48 12.06 0.475
03:41 1023 30.21 853 25.19 11.9 53.4 82 8.9 48 12.09 0.476
03:42 1023 30.21 853 25.19 11.9 53.5 82 8.9 48 12.13 0.478
03:43 1023 30.21 853 25.19 12 53.5 82 8.9 48.1 12.2 0.48
03:44 1023 30.21 853 25.19 12 53.5 81 8.9 48 12.21 0.481
03:45 1023 30.21 853 25.19 11.7 53.1 82 8.8 47.8 12.07 0.475
03:46 1023 30.21 853 25.19 11.4 52.6 84 8.8 47.9 11.79 0.464
03:47 1023 30.21 853 25.19 11.3 52.3 85 8.9 48 11.66 0.459
03:48 1023 30.21 853 25.19 11.3 52.4 85 8.9 48 11.68 0.46
03:49 1023 30.21 853 25.19 11.4 52.4 84 8.8 47.8 11.7 0.461
03:50 1023 30.21 853 25.19 11.3 52.3 85 8.8 47.9 11.63 0.458
03:51 1023 30.21 853 25.19 11.2 52.1 86 8.9 48 11.54 0.454
03:52 1023 30.21 853 25.19 11.2 52.1 85 8.8 47.8 11.5 0.453
03:53 1024 30.24 853 25.19 11 51.8 86 8.8 47.9 11.45 0.451
03:54 1024 30.24 853 25.19 11 51.7 87 8.9 48.1 11.37 0.448
03:55 1023 30.21 853 25.19 11 51.8 87 8.9 48 11.36 0.447
03:56 1023 30.21 853 25.19 10.9 51.7 86 8.6 47.6 11.31 0.445
03:57 1023 30.21 853 25.19 10.8 51.5 86 8.7 47.6 11.2 0.441
03:58 1023 30.21 853 25.19 10.8 51.4 87 8.7 47.6 11.06 0.435
03:59 1023 30.21 853 25.19 10.7 51.2 87 8.6 47.5 11.06 0.435
04:00 1023 30.21 853 25.19 10.6 51 88 8.6 47.6 10.98 0.432
04:01 1023 30.21 853 25.19 10.5 50.9 88 8.7 47.6 10.88 0.428
04:02 1023 30.21 853 25.19 10.5 50.8 89 8.7 47.6 10.81 0.426
04:03 1023 30.21 853 25.19 10.4 50.7 90 8.7 47.7 10.76 0.424
04:04 1023 30.21 853 25.19 10.4 50.7 89 8.7 47.6 10.78 0.424
04:05 1023 30.21 853 25.19 10.4 50.7 89 8.6 47.5 10.76 0.424
04:06 1023 30.21 853 25.19 10.4 50.7 89 8.7 47.6 10.73 0.422
04:07 1023 30.21 853 25.19 10.4 50.6 89 8.6 47.5 10.72 0.422
04:08 1023 30.21 853 25.19 10.4 50.7 89 8.7 47.6 10.75 0.423
04:09 1023 30.21 853 25.19 10.4 50.7 89 8.7 47.6 10.75 0.423
04:10 1023 30.21 853 25.19 10.4 50.7 89 8.7 47.7 10.75 0.423
04:11 1023 30.21 853 25.19 10.4 50.7 89 8.7 47.7 10.75 0.423
04:12 1023 30.21 853 25.19 10.4 50.8 89 8.7 47.6 10.79 0.425
04:13 1023 30.21 853 25.19 10.4 50.7 89 8.7 47.6 10.75 0.423
04:14 1023 30.21 853 25.19 10.3 50.6 89 8.6 47.5 10.73 0.422
04:15 1023 30.21 853 25.19 10.3 50.5 89 8.6 47.4 10.62 0.418
04:16 1023 30.21 853 25.19 10.2 50.4 90 8.6 47.5 10.54 0.415
04:17 1023 30.21 853 25.19 10.2 50.3 90 8.6 47.5 10.51 0.414
04:18 1023 30.21 853 25.19 10.2 50.3 90 8.7 47.6 10.53 0.415
04:19 1023 30.21 853 25.19 10.2 50.4 90 8.7 47.7 10.58 0.417
04:20 1023 30.21 853 25.19 10.3 50.5 90 8.7 47.7 10.55 0.415
04:21 1023 30.21 853 25.19 10.3 50.5 90 8.7 47.7 10.6 0.417
04:22 1023 30.21 853 25.19 10.3 50.5 90 8.7 47.7 10.58 0.417
04:23 1023 30.21 853 25.19 10.3 50.6 90 8.7 47.7 10.62 0.418
04:24 1023 30.21 853 25.19 10.4 50.6 90 8.8 47.8 10.64 0.419
04:25 1023 30.21 853 25.19 10.5 50.8 89 8.8 47.8 10.75 0.423
04:26 1023 30.21 853 25.19 10.5 51 89 8.8 47.8 10.75 0.423
04:27 1023 30.21 853 25.19 10.7 51.2 88 8.8 47.9 10.84 0.427
04:28 1023 30.21 853 25.19 10.7 51.3 87 8.7 47.7 10.94 0.431
04:29 1023 30.21 853 25.19 10.7 51.3 87 8.7 47.7 10.92 0.43
04:30 1023 30.21 853 25.19 10.7 51.2 88 8.7 47.6 10.93 0.43
04:31 1023 30.21 853 25.19 10.6 51.2 88 8.7 47.7 10.85 0.427
04:32 1023 30.21 853 25.19 10.6 51.1 88 8.7 47.7 10.84 0.427
04:33 1023 30.21 853 25.19 10.7 51.2 88 8.7 47.7 10.91 0.43
04:34 1023 30.21 853 25.19 10.7 51.2 87 8.6 47.6 10.94 0.431
04:35 1023 30.21 853 25.19 10.6 51.1 87 8.6 47.5 10.88 0.428
04:36 1023 30.21 853 25.19 10.6 51.1 87 8.6 47.5 10.86 0.428
04:37 1023 30.21 853 25.19 10.6 51.1 88 8.6 47.5 10.81 0.426
04:38 1023 30.21 853 25.19 10.6 51 88 8.6 47.5 10.79 0.425
04:39 1023 30.21 853 25.19 10.5 50.8 88 8.6 47.4 10.77 0.424
04:40 1023 30.21 853 25.19 10.4 50.7 89 8.6 47.5 10.72 0.422
04:41 1023 30.21 853 25.19 10.4 50.7 89 8.7 47.6 10.71 0.422
04:42 1023 30.21 853 25.19 10.4 50.7 89 8.6 47.5 10.72 0.422
04:43 1023 30.21 853 25.19 10.4 50.7 89 8.7 47.6 10.72 0.422
04:44 1023 30.21 853 25.19 10.5 50.9 89 8.7 47.7 10.8 0.425
04:45 1023 30.21 853 25.19 10.5 51 89 8.8 47.8 10.79 0.425
04:46 1023 30.21 853 25.19 10.6 51 89 8.8 47.8 10.85 0.427
04:47 1023 30.21 853 25.19 10.7 51.2 88 8.8 47.9 10.92 0.43
04:48 1023 30.21 853 25.19 10.7 51.3 88 8.8 47.8 10.93 0.43
04:49 1023 30.21 853 25.19 10.7 51.3 88 8.8 47.8 10.93 0.43
04:50 1023 30.21 853 25.19 10.8 51.4 88 8.8 47.8 10.94 0.431
04:51 1023 30.21 853 25.19 10.8 51.4 87 8.8 47.8 11.04 0.435
04:52 1023 30.21 853 25.19 10.8 51.4 87 8.8 47.8 10.99 0.433
04:53 1023 30.21 853 25.19 10.8 51.4 88 8.8 47.9 10.97 0.432
04:54 1023 30.21 853 25.19 10.8 51.4 87 8.8 47.8 11.03 0.434
04:55 1023 30.21 853 25.19 10.8 51.5 87 8.7 47.7 11.06 0.435
04:56 1023 30.21 853 25.19 10.8 51.5 86 8.7 47.6 11.06 0.435
04:57 1023 30.21 853 25.19 10.8 51.4 86 8.6 47.6 11.07 0.436
04:58 1023 30.21 853 25.19 10.8 51.4 87 8.6 47.6 10.99 0.433
04:59 1023 30.21 853 25.19 10.7 51.2 88 8.8 47.8 10.94 0.431
05:00 1023 30.21 853 25.19 10.7 51.2 88 8.7 47.7 10.96 0.431
05:01 1023 30.21 853 25.19 10.7 51.2 88 8.7 47.7 10.97 0.432
05:02 1023 30.21 853 25.19 10.7 51.2 88 8.8 47.8 10.94 0.431
05:03 1023 30.21 853 25.19 10.6 51.1 88 8.7 47.7 10.83 0.426
05:04 1024 30.24 853 25.19 10.5 51 88 8.7 47.6 10.76 0.424
05:05 1023 30.21 853 25.19 10.4 50.8 89 8.6 47.5 10.75 0.423
05:06 1023 30.21 853 25.19 10.4 50.7 89 8.6 47.5 10.66 0.42
05:07 1023 30.21 853 25.19 10.2 50.4 89 8.6 47.5 10.56 0.416
05:08 1023 30.21 853 25.19 10.2 50.4 90 8.6 47.5 10.55 0.415
05:09 1023 30.21 853 25.19 10.2 50.4 90 8.7 47.7 10.56 0.416
05:10 1023 30.21 853 25.19 10.3 50.5 90 8.7 47.7 10.6 0.417
05:11 1023 30.21 853 25.19 10.4 50.6 90 8.8 47.8 10.66 0.42
05:12 1023 30.21 853 25.19 10.5 50.8 89 8.8 47.8 10.75 0.423
05:13 1023 30.21 853 25.19 10.6 51.1 89 8.9 48 10.88 0.428
05:14 1023 30.21 853 25.19 10.8 51.4 88 8.9 48.1 10.99 0.433
05:15 1023 30.21 853 25.19 10.9 51.6 87 8.9 48 11.12 0.438
05:16 1023 30.21 853 25.19 10.9 51.6 87 8.9 48 11.12 0.438
05:17 1023 30.21 853 25.19 10.9 51.7 87 8.9 48 11.14 0.439
05:18 1023 30.21 853 25.19 10.9 51.6 87 8.9 48 11.15 0.439
05:19 1023 30.21 853 25.19 10.9 51.7 87 8.9 48 11.2 0.441
05:20 1023 30.21 853 25.19 11 51.7 87 8.9 48 11.2 0.441
05:21 1023 30.21 853 25.19 10.9 51.7 87 8.8 47.9 11.22 0.442
05:22 1024 30.24 853 25.19 11 51.7 87 8.9 48 11.14 0.439
05:23 1024 30.24 853 25.19 10.9 51.6 87 8.9 48 11.18 0.44
05:24 1024 30.24 853 25.19 10.9 51.6 87 8.8 47.9 11.18 0.44
05:25 1023 30.21 853 25.19 10.9 51.7 87 8.8 47.9 11.19 0.441
05:26 1024 30.24 853 25.19 10.9 51.6 87 8.8 47.9 11.18 0.44
05:27 1024 30.24 853 25.19 10.9 51.6 87 8.8 47.8 11.18 0.44
05:28 1023 30.21 853 25.19 10.9 51.6 87 8.8 47.8 11.19 0.441
05:29 1023 30.21 853 25.19 10.9 51.7 87 8.8 47.8 11.24 0.443
05:30 1023 30.21 853 25.19 11 51.8 86 8.8 47.9 11.28 0.444
05:31 1023 30.21 853 25.19 11 51.8 86 8.8 47.8 11.28 0.444
05:32 1024 30.24 853 25.19 11 51.8 86 8.8 47.8 11.27 0.444
05:33 1024 30.24 853 25.19 10.9 51.7 86 8.8 47.8 11.22 0.442
05:34 1024 30.24 853 25.19 10.9 51.6 87 8.8 47.8 11.2 0.441
05:35 1024 30.24 853 25.19 10.8 51.5 87 8.8 47.8 11.15 0.439
05:36 1024 30.24 853 25.19 10.8 51.5 87 8.8 47.8 11.09 0.437
05:37 1024 30.24 853 25.19 10.8 51.5 87 8.8 47.8 11.14 0.439
05:38 1024 30.24 853 25.19 10.8 51.5 87 8.8 47.8 11.11 0.437
05:39 1024 30.24 853 25.19 10.7 51.3 88 8.8 47.9 11.06 0.435
05:40 1024 30.24 853 25.19 10.8 51.5 87 8.8 47.9 11.14 0.439
05:41 1024 30.24 853 25.19 11 51.8 87 8.9 47.9 11.24 0.443
05:42 1024 30.24 853 25.19 11.1 52.1 86 8.9 48 11.28 0.444
05:43 1024 30.24 853 25.19 11.1 52 86 8.9 48 11.37 0.448
05:44 1024 30.24 853 25.19 11 51.9 86 8.9 47.9 11.35 0.447
05:45 1024 30.24 853 25.19 11 51.8 87 8.9 48 11.29 0.444
05:46 1024 30.24 853 25.19 11 51.7 87 8.9 48 11.21 0.441
05:47 1024 30.24 853 25.19 10.9 51.7 87 8.9 48 11.22 0.442
05:48 1024 30.24 853 25.19 10.9 51.6 88 8.9 48.1 11.24 0.443
05:49 1024 30.24 853 25.19 11 51.7 88 9 48.2 11.27 0.444
05:50 1024 30.24 853 25.19 11.1 51.9 88 9.1 48.4 11.32 0.446
05:51 1024 30.24 853 25.19 11.1 52 88 9.1 48.4 11.35 0.447
05:52 1024 30.24 853 25.19 11.2 52.2 87 9.1 48.4 11.44 0.45
05:53 1024 30.24 853 25.19 11.2 52.2 86 9.1 48.3 11.44 0.45
05:54 1024 30.24 853 25.19 11.2 52.2 87 9.1 48.3 11.51 0.453
05:55 1024 30.24 853 25.19 11.2 52.2 87 9.1 48.4 11.49 0.452
05:56 1024 30.24 853 25.19 11.3 52.3 86 9.1 48.4 11.55 0.455
05:57 1024 30.24 853 25.19 11.4 52.5 86 9.2 48.5 11.64 0.458
05:58 1024 30.24 853 25.19 11.4 52.6 86 9.1 48.4 11.67 0.459
05:59 1024 30.24 853 25.19 11.5 52.7 86 9.2 48.5 11.72 0.461
06:00 1024 30.24 853 25.19 11.5 52.6 86 9.2 48.5 11.72 0.461
06:01 1024 30.24 853 25.19 11.4 52.5 86 9.2 48.5 11.7 0.461
06:02 1024 30.24 853 25.19 11.3 52.3 87 9.2 48.5 11.65 0.459
06:03 1024 30.24 853 25.19 11.2 52.2 87 9.2 48.5 11.61 0.457
06:04 1024 30.24 853 25.19 11.2 52.2 87 9.2 48.6 11.52 0.454
06:05 1024 30.24 853 25.19 11.2 52.2 87 9.2 48.6 11.55 0.455
06:06 1024 30.24 853 25.19 11.3 52.3 87 9.2 48.5 11.61 0.457
06:07 1024 30.24 853 25.19 11.3 52.3 87 9.2 48.5 11.58 0.456
06:08 1024 30.24 853 25.19 11.3 52.3 87 9.2 48.6 11.59 0.456
06:09 1024 30.24 853 25.19 11.2 52.2 87 9.2 48.5 11.58 0.456
06:10 1024 30.24 853 25.19 11.2 52.2 87 9.2 48.6 11.52 0.454
06:11 1024 30.24 853 25.19 11.2 52.2 87 9.2 48.6 11.5 0.453
06:12 1024 30.24 853 25.19 11.3 52.3 87 9.2 48.6 11.55 0.455
06:13 1024 30.24 853 25.19 11.3 52.3 87 9.2 48.5 11.54 0.454
06:14 1024 30.24 853 25.19 11.2 52.1 87 9.1 48.4 11.48 0.452
06:15 1024 30.24 853 25.19 11.1 52 87 9.1 48.3 11.42 0.45
06:16 1024 30.24 853 25.19 10.9 51.7 88 9 48.3 11.33 0.446
06:17 1024 30.24 853 25.19 10.9 51.7 88 9 48.2 11.28 0.444
06:18 1024 30.24 853 25.19 10.9 51.5 89 9.1 48.3 11.26 0.443
06:19 1024 30.24 853 25.19 10.9 51.7 88 9 48.2 11.26 0.443
06:20 1024 30.24 853 25.19 11 51.7 88 9 48.2 11.24 0.443
06:21 1024 30.24 853 25.19 11 51.8 87 8.9 48 11.32 0.446
06:22 1024 30.24 853 25.19 11.1 51.9 86 8.8 47.9 11.31 0.445
06:23 1024 30.24 853 25.19 11 51.8 87 8.9 48 11.26 0.443
06:24 1024 30.24 853 25.19 11 51.8 87 8.8 47.9 11.22 0.442
06:25 1024 30.24 853 25.19 10.9 51.6 87 8.7 47.7 11.15 0.439
06:26 1024 30.24 853 25.19 10.8 51.4 87 8.7 47.7 11.06 0.435
06:27 1024 30.24 853 25.19 10.8 51.4 88 8.9 48 11.05 0.435
06:28 1024 30.24 853 25.19 10.8 51.4 88 8.9 48 11.06 0.435
06:29 1024 30.24 853 25.19 10.9 51.5 87 8.8 47.9 11.1 0.437
06:30 1024 30.24 853 25.19 10.9 51.5 87 8.8 47.8 11.07 0.436
06:31 1024 30.24 853 25.19 10.9 51.5 86 8.7 47.6 11.1 0.437
06:32 1024 30.24 853 25.19 10.8 51.4 87 8.7 47.7 11.05 0.435
06:33 1024 30.24 853 25.19 10.8 51.5 87 8.7 47.7 11.04 0.435
06:34 1024 30.24 853 25.19 10.8 51.5 87 8.7 47.7 11.03 0.434
06:35 1024 30.24 853 25.19 10.9 51.6 87 8.8 47.8 11.06 0.435
06:36 1024 30.24 853 25.19 11 51.7 86 8.7 47.7 11.12 0.438
06:37 1024 30.24 853 25.19 10.9 51.7 86 8.7 47.6 11.08 0.436
06:38 1024 30.24 853 25.19 10.9 51.5 87 8.7 47.7 11.1 0.437
06:39 1024 30.24 853 25.19 10.8 51.5 87 8.7 47.7 11.06 0.435
06:40 1024 30.24 853 25.19 10.9 51.5 87 8.8 47.9 11.1 0.437
06:41 1024 30.24 853 25.19 10.9 51.7 87 8.9 48 11.16 0.439
06:42 1024 30.24 853 25.19 11 51.8 87 9 48.2 11.27 0.444
06:43 1024 30.24 853 25.19 11.1 52 87 9.1 48.4 11.34 0.446
06:44 1024 30.24 853 25.19 11.2 52.2 86 9.1 48.3 11.48 0.452
06:45 1024 30.24 853 25.19 11.3 52.3 86 9.1 48.3 11.54 0.454
06:46 1024 30.24 853 25.19 11.4 52.4 86 9.1 48.4 11.58 0.456
06:47 1024 30.24 853 25.19 11.3 52.4 86 9.1 48.3 11.63 0.458
06:48 1024 30.24 853 25.19 11.3 52.4 86 9.1 48.3 11.74 0.462
06:49 1024 30.24 853 25.19 11.3 52.4 86 9.1 48.4 11.73 0.462
06:50 1024 30.24 853 25.19 11.3 52.3 86 9.1 48.4 11.78 0.464
06:51 1024 30.24 853 25.19 11.3 52.3 87 9.1 48.5 11.85 0.467
06:52 1024 30.24 853 25.19 11.3 52.3 87 9.2 48.6 11.89 0.468
06:53 1024 30.24 853 25.19 11.3 52.3 87 9.2 48.6 11.98 0.472
06:54 1024 30.24 853 25.19 11.4 52.4 87 9.3 48.8 12.01 0.473
06:55 1024 30.24 853 25.19 11.5 52.6 87 9.4 48.9 12.12 0.477
06:56 1024 30.24 853 25.19 11.6 52.8 87 9.4 49 12.23 0.481
06:57 1024 30.24 853 25.19 11.7 53.1 86 9.5 49.1 12.33 0.485
06:58 1024 30.24 853 25.19 11.8 53.2 86 9.6 49.2 12.43 0.489
06:59 1024 30.24 853 25.19 11.9 53.4 86 9.6 49.2 12.52 0.493
07:00 1024 30.24 853 25.19 12 53.5 86 9.6 49.3 12.53 0.493
07:01 1024 30.24 853 25.19 12.1 53.7 86 9.8 49.6 12.65 0.498
07:02 1024 30.24 853 25.19 12.1 53.7 86 9.7 49.5 12.63 0.497
07:03 1024 30.24 853 25.19 12.2 53.9 85 9.8 49.7 12.69 0.5
07:04 1024 30.24 853 25.19 12.2 54 85 9.8 49.7 12.71 0.5
07:05 1024 30.24 853 25.19 12.3 54.1 85 9.9 49.8 12.82 0.505
07:06 1024 30.24 853 25.19 12.4 54.2 85 10 49.9 12.83 0.505
07:07 1024 30.24 853 25.19 12.4 54.4 85 10 50 12.91 0.508
07:08 1024 30.24 853 25.19 12.5 54.6 85 10.1 50.1 12.94 0.509
07:09 1024 30.24 853 25.19 12.6 54.7 85 10.2 50.3 13.05 0.514
07:10 1024 30.24 853 25.19 12.7 54.8 85 10.2 50.4 13.16 0.518
07:11 1024 30.24 853 25.19 12.7 54.9 84 10.1 50.3 13.31 0.524
07:12 1024 30.24 853 25.19 12.8 55.1 84 10.2 50.4 13.4 0.528
07:13 1024 30.24 853 25.19 12.9 55.2 84 10.3 50.6 13.5 0.531
07:14 1024 30.24 853 25.19 13 55.4 84 10.3 50.6 13.6 0.535
07:15 1024 30.24 853 25.19 13.1 55.5 83 10.3 50.6 13.63 0.537
07:16 1024 30.24 853 25.19 13.2 55.7 83 10.4 50.7 13.72 0.54
07:17 1024 30.24 853 25.19 13.3 55.9 82 10.4 50.7 13.77 0.542
07:18 1024 30.24 853 25.19 13.4 56.1 82 10.4 50.7 13.95 0.549
07:19 1024 30.24 853 25.19 13.5 56.4 82 10.5 50.9 14.16 0.557
07:20 1024 30.24 853 25.19 13.7 56.6 82 10.7 51.3 14.27 0.562
07:21 1024 30.24 854 25.22 13.9 57 82 10.9 51.6 14.45 0.569
07:22 1024 30.24 854 25.22 14.1 57.4 83 11.3 52.3 14.66 0.577
07:23 1024 30.24 854 25.22 14.4 57.9 81 11.2 52.1 14.9 0.587
07:24 1024 30.24 854 25.22 14.8 58.6 78 11.1 51.9 15.1 0.594
07:25 1024 30.24 854 25.22 15.1 59.2 76 10.9 51.6 15.3 0.602
07:26 1024 30.24 854 25.22 15.3 59.6 74 10.7 51.3 15.57 0.613
07:27 1024 30.24 854 25.22 15.3 59.6 75 10.9 51.6 15.74 0.62
07:28 1024 30.24 853 25.19 15.2 59.4 75 10.8 51.5 15.67 0.617
07:29 1024 30.24 853 25.19 15.1 59.1 76 11 51.7 15.55 0.612
07:30 1024 30.24 853 25.19 15 58.9 78 11.1 52.1 15.44 0.608
07:31 1024 30.24 853 25.19 14.9 58.8 79 11.3 52.4 15.35 0.604
07:32 1024 30.24 853 25.19 14.8 58.6 81 11.5 52.7 15.35 0.604
07:33 1024 30.24 853 25.19 14.8 58.6 81 11.6 52.9 15.38 0.606
07:34 1024 30.24 853 25.19 14.8 58.7 80 11.5 52.7 15.46 0.609
07:35 1024 30.24 854 25.22 14.9 58.9 79 11.3 52.4 15.58 0.613
07:36 1024 30.24 854 25.22 15.1 59.1 79 11.5 52.7 15.72 0.619
07:37 1024 30.24 854 25.22 15.2 59.4 77 11.2 52.2 15.76 0.62
07:38 1024 30.24 854 25.22 15.3 59.6 77 11.5 52.6 15.79 0.622
07:39 1024 30.24 854 25.22 15.5 59.8 77 11.4 52.6 15.91 0.626
07:40 1024 30.24 854 25.22 15.6 60.1 76 11.5 52.8 16.07 0.633
07:41 1024 30.24 854 25.22 15.8 60.4 76 11.7 53 16.21 0.638
07:42 1024 30.24 854 25.22 16 60.7 75 11.5 52.7 16.37 0.644
07:43 1024 30.24 854 25.22 16.1 61 74 11.6 52.9 16.52 0.65
07:44 1024 30.24 854 25.22 16.3 61.3 74 11.6 53 16.71 0.658
07:45 1024 30.24 854 25.22 16.5 61.6 70 11 51.8 16.77 0.66
07:46 1024 30.24 854 25.22 16.5 61.7 70 11.2 52.1 16.69 0.657
07:47 1025 30.27 854 25.22 16.6 61.9 72 11.6 52.8 16.72 0.658
07:48 1025 30.27 854 25.22 16.7 62.1 68 10.9 51.7 16.78 0.661
07:49 1025 30.27 854 25.22 16.8 62.3 71 11.5 52.7 16.71 0.658
07:50 1024 30.24 854 25.22 17 62.5 71 11.8 53.2 16.83 0.663
07:51 1024 30.24 854 25.22 17 62.6 68 11.1 52 17.02 0.67
07:52 1024 30.24 854 25.22 17 62.6 68 11.2 52.1 17.13 0.674
07:53 1025 30.27 854 25.22 17 62.6 68 11.1 51.9 17.24 0.679
07:54 1025 30.27 854 25.22 17 62.7 69 11.4 52.6 17.37 0.684
07:55 1025 30.27 854 25.22 17.1 62.8 70 11.6 52.9 17.54 0.691
07:56 1025 30.27 854 25.22 17.3 63.2 68 11.5 52.7 17.64 0.694
07:57 1025 30.27 854 25.22 17.5 63.4 68 11.5 52.8 17.53 0.69
07:58 1025 30.27 854 25.22 17.3 63.2 68 11.4 52.6 17.28 0.68
07:59 1025 30.27 854 25.22 17.1 62.7 65 10.5 50.8 17.06 0.672
08:00 1025 30.27 854 25.22 16.9 62.4 66 10.6 51.1 16.93 0.667
08:01 1025 30.27 854 25.22 16.9 62.4 66 10.5 50.9 16.91 0.666
08:02 1025 30.27 854 25.22 16.9 62.4 66 10.6 51.1 16.98 0.669
08:03 1025 30.27 854 25.22 16.9 62.4 69 11.2 52.1 17.03 0.67
08:04 1025 30.27 854 25.22 17 62.6 66 10.7 51.2 17.13 0.674
08:05 1025 30.27 854 25.22 17 62.6 69 11.4 52.5 17.17 0.676
08:06 1025 30.27 854 25.22 17 62.6 69 11.5 52.6 17.17 0.676
08:07 1025 30.27 854 25.22 17 62.7 67 11 51.9 17.21 0.678
08:08 1025 30.27 854 25.22 17.1 62.8 66 10.8 51.4 17.24 0.679
08:09 1025 30.27 854 25.22 17.1 62.9 67 11 51.8 17.31 0.681
08:10 1025 30.27 854 25.22 17.2 63 66 11 51.7 17.36 0.683
08:11 1025 30.27 854 25.22 17.3 63.1 64 10.6 51 17.38 0.684
08:12 1025 30.27 854 25.22 17.3 63.1 66 11 51.9 17.53 0.69
08:13 1025 30.27 854 25.22 17.5 63.5 64 10.6 51.1 17.75 0.699
08:14 1025 30.27 854 25.22 17.6 63.6 63 10.6 51 17.87 0.704
08:15 1025 30.27 854 25.22 17.7 63.8 66 11.2 52.2 18.01 0.709
08:16 1025 30.27 854 25.22 17.9 64.2 61 10.5 50.8 18.3 0.72
08:17 1025 30.27 854 25.22 18.1 64.5 65 11.4 52.5 18.43 0.726
08:18 1025 30.27 854 25.22 18.2 64.7 63 11.2 52.2 18.5 0.728
08:19 1025 30.27 854 25.22 18.2 64.8 62 10.9 51.6 18.67 0.735
08:20 1025 30.27 854 25.22 18.4 65.2 66 12 53.5 18.91 0.744
08:21 1025 30.27 854 25.22 18.6 65.6 63 11.5 52.7 19.23 0.757
08:22 1025 30.27 854 25.22 18.7 65.6 62 11.3 52.4 19.39 0.763
08:23 1025 30.27 854 25.22 18.7 65.7 60 10.8 51.4 19.5 0.768
08:24 1025 30.27 854 25.22 18.8 65.9 61 11.3 52.3 19.71 0.776
08:25 1025 30.27 854 25.22 18.8 65.9 58 10.4 50.8 19.8 0.78
08:26 1025 30.27 854 25.22 18.8 65.9 61 11.4 52.4 19.83 0.781
08:27 1025 30.27 854 25.22 18.9 66.1 58 10.6 51 19.77 0.778
08:28 1025 30.27 854 25.22 18.9 66.1 61 11.3 52.4 19.54 0.769
08:29 1025 30.27 854 25.22 18.9 65.9 58 10.6 51.1 19.43 0.765
08:30 1025 30.27 854 25.22 18.9 66.1 57 10.4 50.8 19.56 0.77
08:31 1025 30.27 854 25.22 19 66.2 61 11.3 52.4 19.66 0.774
08:32 1025 30.27 854 25.22 19.1 66.4 57 10.4 50.8 19.64 0.773
08:33 1025 30.27 854 25.22 19.1 66.4 59 11.1 51.9 19.62 0.772
08:34 1025 30.27 854 25.22 19.1 66.4 59 11 51.8 19.76 0.778
08:35 1025 30.27 854 25.22 18.9 66.1 61 11.5 52.6 19.81 0.78
08:36 1025 30.27 854 25.22 18.8 65.9 60 11 51.7 19.8 0.78
08:37 1025 30.27 854 25.22 18.9 65.9 62 11.5 52.7 19.78 0.779
08:38 1025 30.27 854 25.22 18.9 66.1 64 12.1 53.7 19.84 0.781
08:39 1025 30.27 854 25.22 19.1 66.3 60 11.2 52.2 19.76 0.778
08:40 1025 30.27 854 25.22 19.1 66.5 63 12 53.5 19.93 0.785
08:41 1025 30.27 854 25.22 19.2 66.6 64 12.3 54.2 20.12 0.792
08:42 1025 30.27 854 25.22 19.3 66.7 59 11.2 52.1 20.22 0.796
08:43 1025 30.27 854 25.22 19.2 66.5 59 11 51.9 20.18 0.794
08:44 1025 30.27 854 25.22 19.1 66.4 63 12 53.6 20.2 0.795
08:45 1025 30.27 854 25.22 19.2 66.5 59 11 51.9 20.25 0.797
08:46 1025 30.27 854 25.22 19.3 66.7 56 10.4 50.8 20.23 0.796
08:47 1025 30.27 854 25.22 19.3 66.7 56 10.4 50.7 20 0.787
08:48 1025 30.27 854 25.22 19.3 66.7 58 10.8 51.5 20.08 0.791
08:49 1025 30.27 854 25.22 19.3 66.8 57 10.7 51.2 20.24 0.797
08:50 1025 30.27 854 25.22 19.4 66.9 57 10.8 51.4 20.28 0.798
08:51 1025 30.27 854 25.22 19.5 67.1 59 11.4 52.5 20.31 0.8
08:52 1025 30.27 854 25.22 19.7 67.5 61 12.2 54 20.45 0.805
08:53 1025 30.27 854 25.22 19.8 67.6 56 11 51.8 20.64 0.813
08:54 1025 30.27 854 25.22 19.9 67.8 57 11.2 52.2 20.72 0.816
08:55 1025 30.27 854 25.22 20.1 68.2 52 10.2 50.3 20.82 0.82
08:56 1025 30.27 854 25.22 20.2 68.3 57 11.6 52.9 20.67 0.814
08:57 1025 30.27 854 25.22 20.1 68.2 60 12.2 54 20.61 0.811
08:58 1025 30.27 854 25.22 20.2 68.4 54 10.8 51.5 20.65 0.813
08:59 1025 30.27 854 25.22 20.3 68.5 55 11.2 52.1 20.7 0.815
09:00 1025 30.27 854 25.22 20.5 68.9 52 10.4 50.8 21.01 0.827
09:01 1025 30.27 854 25.22 20.7 69.2 53 10.9 51.6 21.06 0.829
09:02 1025 30.27 854 25.22 20.8 69.4 54 11.4 52.5 21.01 0.827
09:03 1025 30.27 854 25.22 20.9 69.6 55 11.6 52.9 20.95 0.825
09:04 1025 30.27 854 25.22 20.9 69.7 54 11.5 52.7 20.86 0.821
09:05 1025 30.27 854 25.22 21 69.8 50 10.4 50.8 20.94 0.824
09:06 1025 30.27 854 25.22 21 69.8 52 11 51.8 20.79 0.819
09:07 1025 30.27 854 25.22 20.9 69.6 51 10.4 50.7 20.82 0.82
09:08 1025 30.27 854 25.22 20.9 69.6 51 10.4 50.7 20.89 0.822
09:09 1025 30.27 854 25.22 20.9 69.6 50 10.3 50.5 21.06 0.829
09:10 1025 30.27 854 25.22 20.9 69.6 53 11 51.9 21.33 0.84
09:11 1025 30.27 854 25.22 21.1 69.9 52 11.1 52 21.56 0.849
09:12 1025 30.27 854 25.22 21.3 70.3 53 11.6 52.9 21.86 0.861
09:13 1025 30.27 854 25.22 21.3 70.4 50 10.6 51.1 21.92 0.863
09:14 1025 30.27 854 25.22 21.3 70.3 50 10.7 51.2 21.86 0.861
09:15 1025 30.27 854 25.22 21.2 70.2 54 11.6 52.8 21.8 0.858
09:16 1025 30.27 854 25.22 21 69.9 55 11.9 53.4 21.72 0.855
09:17 1025 30.27 854 25.22 20.9 69.6 52 10.9 51.7 21.51 0.847
09:18 1025 30.27 854 25.22 20.8 69.5 53 11 51.8 21.27 0.837
09:19 1025 30.27 854 25.22 20.8 69.5 54 11.3 52.3 21.11 0.831
09:20 1025 30.27 854 25.22 20.9 69.6 59 12.7 54.9 21.18 0.834
09:21 1025 30.27 854 25.22 21 69.8 56 12.1 53.8 21.4 0.843
09:22 1025 30.27 854 25.22 21 69.7 52 10.9 51.7 21.42 0.843
09:23 1025 30.27 854 25.22 20.9 69.6 52 10.8 51.5 21.39 0.842
09:24 1025 30.27 854 25.22 20.9 69.6 57 12.1 53.7 21.46 0.845
09:25 1025 30.27 854 25.22 21 69.8 56 11.9 53.4 21.52 0.847
09:26 1025 30.27 854 25.22 21.2 70.1 53 11.4 52.6 21.63 0.852
09:27 1025 30.27 854 25.22 21.4 70.4 54 11.9 53.4 21.69 0.854
09:28 1025 30.27 854 25.22 21.5 70.7 56 12.4 54.3 21.89 0.862
09:29 1025 30.27 854 25.22 21.6 70.8 50 10.9 51.6 21.95 0.864
09:30 1025 30.27 854 25.22 21.7 71 50 11.1 51.9 21.98 0.865
09:31 1025 30.27 854 25.22 21.8 71.3 52 11.5 52.8 21.95 0.864
09:32 1025 30.27 854 25.22 21.9 71.5 50 11.1 52.1 22 0.866
09:33 1025 30.27 854 25.22 22 71.6 48 10.7 51.3 21.82 0.859
09:34 1025 30.27 854 25.22 21.9 71.3 52 11.7 53 21.68 0.854
09:35 1025 30.27 854 25.22 21.8 71.2 48 10.5 51 21.68 0.854
09:36 1025 30.27 854 25.22 21.7 71.1 48 10.5 50.8 21.72 0.855
09:37 1025 30.27 854 25.22 21.8 71.2 50 10.9 51.7 21.9 0.862
09:38 1025 30.27 854 25.22 21.8 71.3 53 12 53.6 22.13 0.871
09:39 1025 30.27 854 25.22 21.8 71.2 51 11.3 52.4 22.2 0.874
09:40 1025 30.27 854 25.22 21.7 71.1 47 10.2 50.3 22.1 0.87
09:41 1025 30.27 854 25.22 21.6 70.9 53 11.7 53.1 22.04 0.868
09:42 1025 30.27 854 25.22 21.7 71.1 48 10.5 50.9 22.12 0.871
09:43 1025 30.27 854 25.22 21.7 71 50 11 51.8 22.12 0.871
09:44 1025 30.27 854 25.22 21.7 71 49 10.6 51 22.1 0.87
09:45 1025 30.27 854 25.22 21.6 70.9 53 11.7 53.1 22.06 0.869
09:46 1025 30.27 854 25.22 21.7 71 56 12.6 54.7 22.11 0.87
09:47 1025 30.27 854 25.22 21.8 71.2 56 12.6 54.7 22.15 0.872
09:48 1025 30.27 854 25.22 21.9 71.4 52 11.6 52.9 22.2 0.874
09:49 1025 30.27 854 25.22 22 71.5 50 11.4 52.4 22.09 0.87
09:50 1025 30.27 854 25.22 21.9 71.5 52 11.7 53.1 21.98 0.865
09:51 1025 30.27 854 25.22 22 71.5 52 11.9 53.4 22.15 0.872
09:52 1025 30.27 854 25.22 22.1 71.7 47 10.4 50.7 22.35 0.88
09:53 1025 30.27 854 25.22 22.2 71.9 45 10 50 22.29 0.878
09:54 1024 30.24 854 25.22 22.2 71.9 47 10.4 50.7 22.13 0.871
09:55 1024 30.24 854 25.22 22 71.6 51 11.6 52.8 22.01 0.867
09:56 1024 30.24 854 25.22 21.9 71.5 51 11.4 52.5 22 0.866
09:57 1025 30.27 854 25.22 22 71.5 52 11.9 53.3 21.93 0.863
09:58 1025 30.27 854 25.22 22 71.6 45 9.8 49.7 22.02 0.867
09:59 1025 30.27 854 25.22 22 71.6 48 10.7 51.3 22.01 0.867
10:00 1025 30.27 854 25.22 22.1 71.7 46 9.9 49.9 22.03 0.867
10:01 1024 30.24 854 25.22 22 71.6 47 10.3 50.6 21.89 0.862
10:02 1024 30.24 854 25.22 22 71.6 47 10.2 50.4 21.97 0.865
10:03 1024 30.24 854 25.22 22.1 71.8 47 10.3 50.6 22.14 0.872
10:04 1024 30.24 854 25.22 22.2 71.9 49 11.2 52.1 22.21 0.874
10:05 1024 30.24 854 25.22 22.2 71.9 49 11 51.8 22.23 0.875
10:06 1024 30.24 854 25.22 22.2 72 54 12.7 54.9 22.28 0.877
10:07 1024 30.24 854 25.22 22.3 72.1 44 9.6 49.3 22.35 0.88
10:08 1024 30.24 854 25.22 22.2 71.9 50 11.3 52.3 22.25 0.876
10:09 1024 30.24 854 25.22 22.1 71.8 48 10.8 51.4 22.3 0.878
10:10 1024 30.24 854 25.22 22.1 71.8 46 10 50 22.33 0.879
10:11 1024 30.24 854 25.22 22.2 71.9 53 12.2 53.9 22.39 0.881
10:12 1024 30.24 854 25.22 22.2 72 48 10.9 51.6 22.38 0.881
10:13 1024 30.24 854 25.22 22.2 72 48 10.8 51.4 22.37 0.881
10:14 1024 30.24 854 25.22 22.3 72.2 45 9.9 49.8 22.36 0.88
10:15 1024 30.24 854 25.22 22.4 72.3 50 11.6 52.9 22.33 0.879
10:16 1024 30.24 854 25.22 22.4 72.3 51 11.9 53.4 22.43 0.883
10:17 1024 30.24 854 25.22 22.4 72.3 53 12.7 54.8 22.58 0.889
10:18 1024 30.24 854 25.22 22.6 72.6 47 10.8 51.5 22.66 0.892
10:19 1024 30.24 854 25.22 22.6 72.7 51 12.1 53.8 22.68 0.893
10:20 1024 30.24 854 25.22 22.6 72.8 45 10.2 50.3 22.7 0.894
10:21 1024 30.24 854 25.22 22.5 72.4 49 11.5 52.6 22.66 0.892
10:22 1024 30.24 854 25.22 22.5 72.4 49 11.3 52.4 22.67 0.893
10:23 1024 30.24 854 25.22 22.6 72.6 48 11.1 52.1 22.73 0.895
10:24 1024 30.24 854 25.22 22.6 72.6 42 9.3 48.7 22.59 0.889
10:25 1024 30.24 854 25.22 22.5 72.5 47 10.9 51.6 22.48 0.885
10:26 1025 30.27 854 25.22 22.4 72.4 43 9.5 49.1 22.5 0.886
10:27 1024 30.24 854 25.22 22.4 72.3 51 11.8 53.3 22.4 0.882
10:28 1024 30.24 854 25.22 22.4 72.2 46 10.3 50.6 22.39 0.881
10:29 1024 30.24 854 25.22 22.2 72 48 10.9 51.7 22.24 0.876
10:30 1024 30.24 854 25.22 22.1 71.8 48 10.7 51.2 22.25 0.876
10:31 1024 30.24 854 25.22 22.2 71.9 48 10.9 51.6 22.37 0.881
10:32 1024 30.24 854 25.22 22.3 72.1 49 11.2 52.2 22.46 0.884
10:33 1024 30.24 854 25.22 22.3 72.2 49 11.2 52.2 22.52 0.887
10:34 1024 30.24 854 25.22 22.4 72.3 47 10.6 51 22.51 0.886
10:35 1024 30.24 854 25.22 22.4 72.3 49 11.4 52.5 22.44 0.883
10:36 1024 30.24 854 25.22 22.4 72.3 48 11 51.9 22.48 0.885
10:37 1024 30.24 854 25.22 22.4 72.2 47 10.6 51.1 22.35 0.88
10:38 1024 30.24 854 25.22 22.3 72.1 53 12.4 54.3 22.35 0.88
10:39 1024 30.24 854 25.22 22.4 72.3 53 12.4 54.3 22.54 0.887
10:40 1024 30.24 854 25.22 22.5 72.5 47 10.9 51.7 22.63 0.891
10:41 1024 30.24 854 25.22 22.5 72.5 45 10.1 50.2 22.54 0.887
10:42 1024 30.24 854 25.22 22.3 72.2 45 9.9 49.9 22.37 0.881
10:43 1024 30.24 854 25.22 22.3 72.1 46 10.1 50.2 22.36 0.88
10:44 1024 30.24 854 25.22 22.3 72.1 46 10.2 50.4 22.4 0.882
10:45 1024 30.24 854 25.22 22.4 72.3 51 12 53.5 22.55 0.888
10:46 1024 30.24 854 25.22 22.6 72.6 49 11.5 52.7 22.77 0.896
10:47 1024 30.24 854 25.22 22.7 72.8 43 9.6 49.2 22.76 0.896
10:48 1024 30.24 854 25.22 22.7 72.8 45 10.2 50.4 22.79 0.897
10:49 1024 30.24 854 25.22 22.7 72.9 46 10.5 51 22.84 0.899
10:50 1024 30.24 854 25.22 22.7 72.8 49 11.6 53 22.76 0.896
10:51 1024 30.24 854 25.22 22.7 72.9 47 10.9 51.6 22.82 0.898
10:52 1024 30.24 854 25.22 22.7 72.9 46 10.6 51.1 22.81 0.898
10:53 1024 30.24 854 25.22 22.7 72.9 49 11.5 52.7 22.77 0.896
10:54 1024 30.24 854 25.22 22.7 72.8 51 12.2 53.9 22.77 0.896
10:55 1024 30.24 854 25.22 22.7 72.9 48 11.4 52.4 22.82 0.898
10:56 1024 30.24 854 25.22 22.7 72.9 47 11 51.7 22.86 0.9
10:57 1024 30.24 854 25.22 22.7 72.8 47 11.1 52 22.82 0.898
10:58 1024 30.24 854 25.22 22.8 73 51 12.2 53.9 22.87 0.9
10:59 1024 30.24 854 25.22 22.8 73 49 11.6 52.9 22.86 0.9
11:00 1024 30.24 854 25.22 22.8 73.1 51 12.3 54.1 22.88 0.901
11:01 1024 30.24 854 25.22 23 73.3 44 10.1 50.2 23.04 0.907
11:02 1024 30.24 854 25.22 23 73.5 46 10.9 51.7 23.08 0.909
11:03 1024 30.24 854 25.22 23.1 73.5 45 10.7 51.2 23.1 0.909
11:04 1024 30.24 854 25.22 23 73.4 45 10.5 50.9 23.1 0.909
11:05 1024 30.24 854 25.22 23 73.4 45 10.7 51.2 23.11 0.91
11:06 1024 30.24 854 25.22 23.2 73.7 45 10.7 51.3 23.2 0.913
11:07 1024 30.24 854 25.22 23.2 73.8 45 10.9 51.6 23.24 0.915
11:08 1024 30.24 854 25.22 23.2 73.8 44 10.7 51.2 23.25 0.915
11:09 1024 30.24 854 25.22 23.2 73.7 45 10.8 51.4 23.16 0.912
11:10 1024 30.24 854 25.22 23.2 73.7 44 10.4 50.7 23.16 0.912
11:11 1024 30.24 854 25.22 23.3 73.9 48 12 53.5 23.37 0.92
11:12 1024 30.24 854 25.22 23.5 74.2 43 10.3 50.6 23.61 0.93
11:13 1024 30.24 854 25.22 23.5 74.3 50 12.5 54.6 23.66 0.931
11:14 1024 30.24 854 25.22 23.6 74.5 48 12.1 53.8 23.8 0.937
11:15 1024 30.24 854 25.22 23.7 74.7 45 11.3 52.3 23.8 0.937
11:16 1024 30.24 854 25.22 23.7 74.7 46 11.5 52.7 23.78 0.936
11:17 1024 30.24 854 25.22 23.7 74.7 48 12.3 54.1 23.74 0.935
11:18 1024 30.24 854 25.22 23.7 74.6 41 10 50 23.72 0.934
11:19 1024 30.24 854 25.22 23.7 74.6 44 11 51.7 23.65 0.931
11:20 1024 30.24 854 25.22 23.7 74.6 47 12 53.6 23.76 0.935
11:21 1024 30.24 854 25.22 23.8 74.8 43 10.8 51.4 23.92 0.942
11:22 1024 30.24 854 25.22 23.7 74.7 45 11.2 52.2 23.92 0.942
11:23 1024 30.24 853 25.19 23.7 74.7 47 12 53.5 23.99 0.944
11:24 1024 30.24 853 25.19 23.9 74.9 43 10.7 51.3 24.13 0.95
11:25 1024 30.24 853 25.19 23.9 74.9 45 11.3 52.4 24.15 0.951
11:26 1024 30.24 853 25.19 23.8 74.9 45 11.2 52.2 24.09 0.948
11:27 1024 30.24 853 25.19 23.8 74.8 43 10.7 51.2 24.03 0.946
11:28 1024 30.24 853 25.19 23.8 74.9 42 10.5 50.8 24.07 0.948
11:29 1024 30.24 854 25.22 23.8 74.8 43 10.5 50.9 23.96 0.943
11:30 1024 30.24 854 25.22 23.6 74.6 43 10.5 50.9 23.87 0.94
11:31 1024 30.24 853 25.19 23.7 74.6 43 10.7 51.3 23.96 0.943
11:32 1024 30.24 853 25.19 23.8 74.9 44 10.9 51.7 24.07 0.948
11:33 1024 30.24 854 25.22 24.1 75.3 42 10.6 51.1 24.29 0.956
11:34 1024 30.24 854 25.22 24.2 75.5 49 12.9 55.2 24.52 0.965
11:35 1024 30.24 853 25.19 24.3 75.7 44 11.6 52.8 24.59 0.968
11:36 1024 30.24 854 25.22 24.4 75.8 39 9.7 49.5 24.65 0.97
11:37 1024 30.24 854 25.22 24.3 75.8 43 11.1 52 24.69 0.972
11:38 1024 30.24 854 25.22 24.3 75.7 42 10.9 51.7 24.75 0.974
11:39 1024 30.24 853 25.19 24.3 75.8 38 9.1 48.5 24.74 0.974
11:40 1024 30.24 853 25.19 24.3 75.7 45 11.9 53.4 24.57 0.967
11:41 1024 30.24 853 25.19 24.2 75.5 40 10.1 50.1 24.51 0.965
11:42 1024 30.24 853 25.19 24.2 75.5 45 11.7 53.1 24.44 0.962
11:43 1024 30.24 853 25.19 24.2 75.6 40 10 50.1 24.53 0.966
11:44 1024 30.24 853 25.19 24.3 75.7 43 11.1 51.9 24.61 0.969
11:45 1024 30.24 853 25.19 24.4 76 39 9.8 49.7 24.68 0.972
11:46 1024 30.24 853 25.19 24.5 76.1 38 9.5 49 24.72 0.973
11:47 1024 30.24 853 25.19 24.6 76.2 42 11.2 52.1 24.75 0.974
11:48 1024 30.24 853 25.19 24.7 76.4 41 10.7 51.2 24.89 0.98
11:49 1024 30.24 853 25.19 24.8 76.6 42 11 51.8 24.96 0.983
11:50 1024 30.24 853 25.19 24.8 76.7 38 9.7 49.5 25 0.984
11:51 1024 30.24 853 25.19 24.7 76.4 39 10.2 50.3 24.92 0.981
11:52 1024 30.24 853 25.19 24.6 76.3 36 9 48.1 24.8 0.976
11:53 1024 30.24 853 25.19 24.5 76.2 37 9 48.2 24.71 0.973
11:54 1024 30.24 853 25.19 24.6 76.2 39 10.1 50.1 24.74 0.974
11:55 1024 30.24 853 25.19 24.7 76.4 38 9.6 49.3 24.87 0.979
11:56 1024 30.24 853 25.19 24.8 76.7 44 12 53.7 25.04 0.986
11:57 1024 30.24 853 25.19 24.9 76.9 38 9.8 49.6 25.12 0.989
11:58 1024 30.24 853 25.19 24.7 76.5 38 9.8 49.6 25.01 0.985
11:59 1024 30.24 853 25.19 24.6 76.3 40 10.3 50.5 24.9 0.98
12:00 1024 30.24 853 25.19 24.6 76.4 36 8.8 47.8 24.91 0.981
12:01 1024 30.24 853 25.19 24.7 76.4 44 11.7 53.1 24.85 0.978
12:02 1024 30.24 853 25.19 24.8 76.7 37 9.3 48.7 24.98 0.983
12:03 1024 30.24 853 25.19 24.8 76.6 36 8.8 47.8 24.95 0.982
12:04 1024 30.24 853 25.19 24.8 76.6 44 11.9 53.5 25.04 0.986
12:05 1024 30.24 853 25.19 24.9 76.9 42 11.2 52.2 25.12 0.989
12:06 1024 30.24 853 25.19 25.1 77.1 38 10.1 50.2 25.22 0.993
12:07 1024 30.24 853 25.19 25.1 77.2 33 8.2 46.7 25.26 0.994
12:08 1024 30.24 853 25.19 25.1 77.2 38 9.9 49.8 25.27 0.995
12:09 1024 30.24 853 25.19 25.1 77.3 40 10.7 51.3 25.34 0.998
12:10 1024 30.24 853 25.19 25.2 77.4 38 10 50.1 25.4 1
12:11 1024 30.24 853 25.19 25.3 77.5 33 8.3 46.9 25.45 1.002
12:12 1024 30.24 853 25.19 25.4 77.6 36 9.6 49.2 25.57 1.007
12:13 1024 30.24 853 25.19 25.5 77.9 37 10.1 50.1 25.69 1.011
12:14 1024 30.24 853 25.19 25.6 78.2 34 8.8 47.9 25.85 1.018
12:15 1024 30.24 853 25.19 25.7 78.2 33 8.7 47.6 25.9 1.02
12:16 1024 30.24 853 25.19 25.7 78.2 32 8.2 46.7 25.91 1.02
12:17 1024 30.24 853 25.19 25.7 78.2 36 9.7 49.4 25.81 1.016
12:18 1024 30.24 853 25.19 25.6 78 29 6.6 43.9 25.83 1.017
12:19 1024 30.24 853 25.19 25.4 77.8 32 7.9 46.2 25.7 1.012
12:20 1024 30.24 853 25.19 25.4 77.7 29 6.4 43.5 25.66 1.01
12:21 1024 30.24 853 25.19 25.3 77.5 34 8.5 47.3 25.62 1.009
12:22 1024 30.24 853 25.19 25.3 77.6 31 7.3 45.1 25.66 1.01
12:23 1024 30.24 853 25.19 25.3 77.5 34 8.4 47 25.57 1.007
12:24 1024 30.24 853 25.19 25.3 77.6 36 9.5 49.1 25.62 1.009
12:25 1024 30.24 853 25.19 25.5 77.8 34 8.9 48 25.69 1.011
12:26 1024 30.24 853 25.19 25.6 78.1 35 9.2 48.6 25.83 1.017
12:27 1024 30.24 853 25.19 25.7 78.2 32 8.2 46.7 25.89 1.019
12:28 1024 30.24 853 25.19 25.5 78 34 8.9 48 25.77 1.015
12:29 1024 30.24 853 25.19 25.6 78.1 33 8.5 47.3 25.82 1.017
12:30 1024 30.24 853 25.19 25.6 78.2 32 7.8 46 25.86 1.018
12:31 1024 30.24 853 25.19 25.7 78.2 31 7.7 45.9 25.86 1.018
12:32 1024 30.24 853 25.19 25.6 78.1 36 9.5 49.1 25.86 1.018
12:33 1024 30.24 853 25.19 25.8 78.4 29 6.9 44.4 26.04 1.025
12:34 1024 30.24 853 25.19 25.9 78.6 31 7.9 46.3 26.1 1.028
12:35 1024 30.24 853 25.19 25.8 78.4 31 7.6 45.6 26 1.024
12:36 1024 30.24 853 25.19 25.7 78.2 33 8.5 47.4 25.96 1.022
12:37 1024 30.24 853 25.19 25.7 78.3 32 8.2 46.8 26.04 1.025
12:38 1024 30.24 853 25.19 25.9 78.6 28 6.3 43.3 26.17 1.03
12:39 1024 30.24 853 25.19 26 78.7 28 6.4 43.6 26.23 1.033
12:40 1024 30.24 853 25.19 26 78.7 29 6.8 44.2 26.19 1.031
12:41 1024 30.24 853 25.19 26 78.7 28 6.2 43.2 26.18 1.031
12:42 1024 30.24 853 25.19 26 78.7 30 7.2 44.9 26.23 1.033
12:43 1024 30.24 853 25.19 26 78.7 29 6.9 44.4 26.22 1.032
12:44 1024 30.24 853 25.19 26 78.8 29 6.7 44.1 26.29 1.035
12:45 1024 30.24 853 25.19 26.1 79 29 7.2 44.9 26.39 1.039
12:46 1024 30.24 853 25.19 26.2 79.1 28 6.6 43.9 26.4 1.039
12:47 1024 30.24 853 25.19 26.2 79.2 29 7.2 44.9 26.41 1.04
12:48 1024 30.24 853 25.19 26.3 79.4 28 6.8 44.2 26.5 1.043
12:49 1024 30.24 853 25.19 26.4 79.5 26 5.5 41.9 26.58 1.046
12:50 1024 30.24 853 25.19 26.4 79.5 29 7 44.7 26.51 1.044
12:51 1024 30.24 853 25.19 26.4 79.6 29 7.3 45.1 26.53 1.044
12:52 1024 30.24 853 25.19 26.3 79.4 30 7.9 46.1 26.49 1.043
12:53 1024 30.24 853 25.19 26.3 79.3 29 7.2 45 26.55 1.045
12:54 1024 30.24 853 25.19 26.4 79.6 29 7.3 45.1 26.73 1.052
12:55 1024 30.24 853 25.19 26.4 79.6 26 5.9 42.6 26.66 1.05
12:56 1024 30.24 853 25.19 26.3 79.4 29 7.1 44.8 26.57 1.046
12:57 1024 30.24 853 25.19 26.3 79.3 29 7.3 45.2 26.49 1.043
12:58 1024 30.24 853 25.19 26.2 79.2 28 6.5 43.8 26.36 1.038
12:59 1024 30.24 853 25.19 26.1 79 30 7.6 45.7 26.33 1.037
13:00 1024 30.24 853 25.19 26.2 79.2 27 6 42.8 26.48 1.043
13:01 1024 30.24 853 25.19 26.2 79.2 32 8.5 47.4 26.48 1.043
13:02 1024 30.24 853 25.19 26.4 79.5 32 8.6 47.5 26.65 1.049
13:03 1024 30.24 853 25.19 26.4 79.6 28 7 44.6 26.65 1.049
13:04 1024 30.24 853 25.19 26.4 79.5 29 7.4 45.3 26.6 1.047
13:05 1024 30.24 853 25.19 26.4 79.5 28 6.8 44.2 26.59 1.047
13:06 1024 30.24 853 25.19 26.4 79.4 26 5.5 41.8 26.54 1.045
13:07 1024 30.24 853 25.19 26.3 79.3 28 6.6 43.8 26.41 1.04
13:08 1024 30.24 853 25.19 26.3 79.3 31 8 46.4 26.44 1.041
13:09 1024 30.24 853 25.19 26.4 79.5 27 6.4 43.5 26.64 1.049
13:10 1024 30.24 853 25.19 26.3 79.4 28 6.6 43.9 26.55 1.045
13:11 1024 30.24 853 25.19 26.3 79.3 28 6.4 43.6 26.49 1.043
13:12 1024 30.24 853 25.19 26.3 79.3 26 5.7 42.2 26.48 1.043
13:13 1024 30.24 853 25.19 26.3 79.3 28 6.7 44.1 26.53 1.044
13:14 1024 30.24 853 25.19 26.4 79.5 30 7.7 45.9 26.66 1.05
13:15 1024 30.24 853 25.19 26.4 79.6 29 7 44.7 26.7 1.051
13:16 1024 30.24 853 25.19 26.5 79.6 34 9.6 49.3 26.82 1.056
13:17 1024 30.24 853 25.19 26.6 79.9 29 7.5 45.5 26.99 1.063
13:18 1024 30.24 853 25.19 26.7 80.1 31 8.5 47.3 26.91 1.059
13:19 1024 30.24 853 25.19 26.7 80.1 30 8.1 46.5 26.95 1.061
13:20 1024 30.24 853 25.19 26.8 80.2 29 7.7 45.9 26.9 1.059
13:21 1024 30.24 853 25.19 26.6 80 30 8 46.4 26.86 1.057
13:22 1024 30.24 853 25.19 26.6 79.9 32 8.8 47.8 26.86 1.057
13:23 1024 30.24 853 25.19 26.7 80 28 6.9 44.4 27.02 1.064
13:24 1024 30.24 853 25.19 26.7 80 28 7 44.5 26.93 1.06
13:25 1024 30.24 853 25.19 26.6 79.9 28 6.9 44.5 26.85 1.057
13:26 1024 30.24 853 25.19 26.6 79.8 28 6.7 44.1 26.83 1.056
13:27 1024 30.24 853 25.19 26.6 79.9 27 6.6 43.9 26.8 1.055
13:28 1024 30.24 853 25.19 26.6 79.9 30 7.9 46.3 26.82 1.056
13:29 1024 30.24 853 25.19 26.7 80 26 6 42.8 26.94 1.061
13:30 1024 30.24 853 25.19 26.8 80.2 27 6.3 43.3 27.05 1.065
13:31 1024 30.24 853 25.19 26.8 80.3 25 5.4 41.8 27.1 1.067
13:32 1024 30.24 853 25.19 26.9 80.3 28 6.9 44.5 27.03 1.064
13:33 1024 30.24 853 25.19 26.9 80.4 31 8.4 47.1 27.16 1.069
13:34 1024 30.24 853 25.19 26.9 80.5 29 7.7 45.9 27.19 1.07
13:35 1024 30.24 853 25.19 26.9 80.4 27 6.5 43.6 27.05 1.065
13:36 1023 30.21 853 25.19 26.8 80.2 26 6.1 42.9 26.93 1.06
13:37 1024 30.24 853 25.19 26.7 80.1 29 7.4 45.3 26.93 1.06
13:38 1024 30.24 853 25.19 26.7 80.1 27 6.7 44 26.9 1.059
13:39 1023 30.21 853 25.19 26.7 80 31 8.5 47.3 26.87 1.058
13:40 1023 30.21 853 25.19 26.8 80.2 30 7.9 46.3 27.1 1.067
13:41 1023 30.21 853 25.19 26.9 80.5 24 5.2 41.4 27.21 1.071
13:42 1023 30.21 853 25.19 27 80.5 26 6.4 43.5 27.15 1.069
13:43 1023 30.21 853 25.19 27 80.6 29 7.9 46.1 27.24 1.072
13:44 1023 30.21 853 25.19 27.1 80.8 27 6.6 44 27.37 1.078
13:45 1023 30.21 853 25.19 27.1 80.7 27 7 44.6 27.29 1.074
13:46 1023 30.21 853 25.19 27 80.6 29 7.5 45.4 27.22 1.072
13:47 1023 30.21 853 25.19 27 80.6 27 6.9 44.4 27.28 1.074
13:48 1023 30.21 853 25.19 27 80.6 29 7.5 45.5 27.22 1.072
13:49 1023 30.21 853 25.19 27 80.6 26 6 42.9 27.3 1.075
13:50 1023 30.21 853 25.19 27.1 80.8 28 7.6 45.6 27.35 1.077
13:51 1023 30.21 853 25.19 27.2 81 30 8.5 47.3 27.39 1.078
13:52 1023 30.21 853 25.19 27.3 81.1 27 6.9 44.3 27.46 1.081
13:53 1023 30.21 853 25.19 27.3 81.1 32 9.3 48.8 27.5 1.083
13:54 1023 30.21 853 25.19 27.5 81.4 26 6.7 44 27.73 1.092
13:55 1023 30.21 853 25.19 27.5 81.6 32 9.5 49.1 27.68 1.09
13:56 1023 30.21 853 25.19 27.6 81.7 26 6.7 44 27.74 1.092
13:57 1023 30.21 853 25.19 27.5 81.5 29 8.1 46.5 27.68 1.09
13:58 1023 30.21 853 25.19 27.5 81.5 29 8 46.4 27.67 1.089
13:59 1023 30.21 853 25.19 27.5 81.4 27 7.4 45.3 27.64 1.088
14:00 1023 30.21 853 25.19 27.4 81.3 28 7.8 46 27.57 1.085
14:01 1023 30.21 853 25.19 27.2 81 27 7 44.6 27.46 1.081
14:02 1023 30.21 853 25.19 27.1 80.8 28 7.1 44.9 27.3 1.075
14:03 1023 30.21 853 25.19 27.1 80.8 30 8.5 47.4 27.3 1.075
14:04 1023 30.21 853 25.19 27 80.7 29 7.8 46.1 27.2 1.071
14:05 1023 30.21 853 25.19 27 80.7 28 7.4 45.4 27.27 1.074
14:06 1023 30.21 853 25.19 27.2 80.9 29 7.8 46.1 27.46 1.081
14:07 1023 30.21 853 25.19 27.3 81.2 31 9 48.3 27.6 1.087
14:08 1023 30.21 853 25.19 27.4 81.3 29 7.9 46.2 27.58 1.086
14:09 1023 30.21 853 25.19 27.4 81.3 30 8.5 47.4 27.63 1.088
14:10 1023 30.21 853 25.19 27.3 81.1 28 7.5 45.5 27.52 1.083
14:11 1023 30.21 853 25.19 27.2 81 25 5.9 42.6 27.47 1.081
14:12 1023 30.21 853 25.19 27.2 81 26 6.6 43.9 27.44 1.08
14:13 1023 30.21 853 25.19 27.3 81.1 30 8.5 47.2 27.47 1.081
14:14 1023 30.21 853 25.19 27.3 81.1 28 7.6 45.6 27.53 1.084
14:15 1023 30.21 853 25.19 27.3 81.1 28 7.5 45.6 27.46 1.081
14:16 1023 30.21 853 25.19 27.2 81 26 6.4 43.6 27.46 1.081
14:17 1023 30.21 853 25.19 27.2 80.9 26 6.3 43.4 27.38 1.078
14:18 1023 30.21 853 25.19 27.2 80.9 26 6.5 43.7 27.32 1.076
14:19 1023 30.21 853 25.19 27.2 80.9 28 7.2 45 27.44 1.08
14:20 1023 30.21 853 25.19 27.3 81.1 26 6.2 43.2 27.51 1.083
14:21 1023 30.21 853 25.19 27.4 81.3 29 8.2 46.8 27.65 1.089
14:22 1023 30.21 853 25.19 27.5 81.4 27 7.1 44.8 27.63 1.088
14:23 1023 30.21 853 25.19 27.4 81.3 26 6.3 43.4 27.52 1.083
14:24 1023 30.21 853 25.19 27.3 81.2 25 5.7 42.3 27.48 1.082
14:25 1023 30.21 853 25.19 27.3 81.1 28 7.2 45 27.41 1.079
14:26 1023 30.21 853 25.19 27.2 81 24 5.4 41.6 27.43 1.08
14:27 1023 30.21 853 25.19 27.2 81 28 7.5 45.5 27.38 1.078
14:28 1023 30.21 853 25.19 27.2 80.9 29 7.8 46.1 27.4 1.079
14:29 1023 30.21 853 25.19 27.2 81 29 7.9 46.1 27.45 1.081
14:30 1023 30.21 853 25.19 27.3 81.1 29 7.8 46 27.47 1.081
14:31 1023 30.21 853 25.19 27.3 81.1 28 7.7 45.8 27.48 1.082
14:32 1023 30.21 853 25.19 27.3 81.1 28 7.4 45.3 27.48 1.082
14:33 1023 30.21 853 25.19 27.2 81 29 7.7 45.9 27.42 1.08
14:34 1023 30.21 853 25.19 27.2 81 29 8.2 46.7 27.39 1.078
14:35 1023 30.21 853 25.19 27.3 81.1 29 8.1 46.5 27.45 1.081
14:36 1023 30.21 853 25.19 27.4 81.2 28 7.4 45.4 27.54 1.084
14:37 1023 30.21 853 25.19 27.4 81.3 27 6.9 44.5 27.57 1.085
14:38 1023 30.21 853 25.19 27.4 81.3 31 8.8 47.8 27.56 1.085
14:39 1023 30.21 853 25.19 27.4 81.4 30 8.7 47.6 27.7 1.091
14:40 1023 30.21 853 25.19 27.6 81.6 29 8.2 46.8 27.91 1.099
14:41 1023 30.21 853 25.19 27.7 81.8 31 9.1 48.3 27.96 1.101
14:42 1023 30.21 853 25.19 27.7 81.8 25 6.3 43.3 27.96 1.101
14:43 1023 30.21 853 25.19 27.7 81.8 28 7.5 45.6 27.79 1.094
14:44 1023 30.21 853 25.19 27.5 81.6 29 8.3 46.9 27.75 1.093
14:45 1023 30.21 853 25.19 27.7 81.8 26 6.5 43.7 27.91 1.099
14:46 1023 30.21 853 25.19 27.7 81.9 25 6 42.8 27.96 1.101
14:47 1023 30.21 853 25.19 27.7 81.9 25 6 42.8 27.86 1.097
14:48 1023 30.21 853 25.19 27.7 81.8 26 6.8 44.3 27.82 1.095
14:49 1023 30.21 853 25.19 27.6 81.7 25 6 42.7 27.79 1.094
14:50 1023 30.21 853 25.19 27.6 81.7 31 9.4 48.9 27.85 1.096
14:51 1023 30.21 853 25.19 27.7 81.9 24 5.8 42.4 27.96 1.101
14:52 1023 30.21 853 25.19 27.6 81.6 29 8.4 47.2 27.92 1.099
14:53 1023 30.21 853 25.19 27.7 81.8 29 8.3 46.9 28.08 1.106
14:54 1023 30.21 853 25.19 27.8 82.1 27 7.6 45.6 28.07 1.105
14:55 1023 30.21 852 25.16 27.8 82 27 7.5 45.5 27.9 1.098
14:56 1023 30.21 852 25.16 27.8 82 30 9.1 48.3 28.02 1.103
14:57 1023 30.21 852 25.16 27.8 82.1 27 7.6 45.6 28.05 1.104
14:58 1023 30.21 852 25.16 27.8 82.1 25 6.4 43.6 27.99 1.102
14:59 1023 30.21 852 25.16 27.8 82 29 8.6 47.5 27.82 1.095
15:00 1023 30.21 852 25.16 27.7 81.9 30 9 48.2 27.87 1.097
15:01 1023 30.21 852 25.16 27.7 81.8 25 6.3 43.3 27.89 1.098
15:02 1023 30.21 852 25.16 27.5 81.5 29 8.3 46.9 27.77 1.093
15:03 1023 30.21 852 25.16 27.6 81.7 28 7.6 45.8 27.95 1.1
15:04 1023 30.21 852 25.16 27.8 82 28 8.1 46.5 28.06 1.105
15:05 1023 30.21 852 25.16 27.7 81.9 28 7.8 46 28.02 1.103
15:06 1023 30.21 852 25.16 27.7 81.8 25 6.4 43.4 27.9 1.098
15:07 1023 30.21 852 25.16 27.6 81.6 28 7.7 45.8 27.78 1.094
15:08 1023 30.21 852 25.16 27.6 81.6 31 9.4 48.8 27.87 1.097
15:09 1023 30.21 852 25.16 27.8 82 25 6.2 43.2 28.05 1.104
15:10 1023 30.21 852 25.16 27.9 82.2 25 6.3 43.4 28.1 1.106
15:11 1023 30.21 852 25.16 28 82.3 30 9 48.2 28.18 1.109
15:12 1023 30.21 852 25.16 28.1 82.5 27 7.6 45.6 28.29 1.114
15:13 1023 30.21 852 25.16 28 82.5 26 6.9 44.5 28.22 1.111
15:14 1023 30.21 852 25.16 28 82.3 28 8 46.4 28.09 1.106
15:15 1023 30.21 852 25.16 27.9 82.1 29 8.4 47.2 28.03 1.104
15:16 1023 30.21 852 25.16 27.7 81.9 28 7.9 46.3 28 1.102
15:17 1023 30.21 852 25.16 27.7 81.9 25 6.4 43.5 28.02 1.103
15:18 1023 30.21 852 25.16 27.7 81.9 29 8.6 47.5 28.04 1.104
15:19 1023 30.21 852 25.16 27.8 82 26 6.9 44.4 28.01 1.103
15:20 1023 30.21 852 25.16 27.9 82.2 29 8.6 47.5 28.09 1.106
15:21 1023 30.21 852 25.16 28 82.5 25 6.7 44 28.2 1.11
15:22 1023 30.21 852 25.16 28 82.5 29 8.6 47.5 28.17 1.109
15:23 1023 30.21 852 25.16 28 82.4 27 7.8 46 28.16 1.109
15:24 1023 30.21 852 25.16 28 82.4 25 6.5 43.6 28.22 1.111
15:25 1023 30.21 852 25.16 28 82.5 28 7.9 46.2 28.25 1.112
15:26 1023 30.21 852 25.16 28.1 82.6 29 8.6 47.6 28.3 1.114
15:27 1023 30.21 852 25.16 28.2 82.8 26 7 44.6 28.4 1.118
15:28 1023 30.21 852 25.16 28.2 82.7 26 7.3 45.1 28.28 1.113
15:29 1023 30.21 852 25.16 28 82.5 25 6.4 43.5 28.13 1.107
15:30 1023 30.21 852 25.16 27.8 82.1 27 7.2 45 27.96 1.101
15:31 1023 30.21 852 25.16 27.6 81.6 27 7.2 45 27.87 1.097
15:32 1023 30.21 852 25.16 27.4 81.3 28 7.6 45.6 27.64 1.088
15:33 1023 30.21 852 25.16 27.2 80.9 24 5.4 41.7 27.55 1.085
15:34 1023 30.21 852 25.16 27.1 80.8 31 8.9 48 27.5 1.083
15:35 1023 30.21 852 25.16 27.3 81.1 32 9.4 48.9 27.69 1.09
15:36 1023 30.21 852 25.16 27.6 81.7 29 8 46.4 27.96 1.101
15:37 1023 30.21 852 25.16 27.9 82.2 24 5.7 42.2 28.18 1.109
15:38 1023 30.21 852 25.16 28 82.4 26 7.1 44.7 28.27 1.113
15:39 1023 30.21 852 25.16 28.1 82.6 28 8.1 46.6 28.38 1.117
15:40 1023 30.21 852 25.16 28.2 82.7 26 6.9 44.5 28.35 1.116
15:41 1023 30.21 852 25.16 28.1 82.6 25 6.7 44.1 28.31 1.115
15:42 1023 30.21 852 25.16 28.2 82.8 25 6.8 44.3 28.4 1.118
15:43 1023 30.21 852 25.16 28.3 83 25 6.7 44 28.51 1.122
15:44 1023 30.21 852 25.16 28.4 83.1 24 6.2 43.1 28.53 1.123
15:45 1023 30.21 852 25.16 28.4 83.1 24 6.3 43.3 28.53 1.123
15:46 1023 30.21 852 25.16 28.3 82.9 26 7.4 45.3 28.42 1.119
15:47 1023 30.21 852 25.16 28.2 82.7 27 7.9 46.3 28.4 1.118
15:48 1023 30.21 852 25.16 28.2 82.7 25 6.5 43.7 28.42 1.119
15:49 1023 30.21 852 25.16 28 82.5 23 5.5 41.9 28.2 1.11
15:50 1023 30.21 852 25.16 28 82.3 26 6.8 44.3 28.15 1.108
15:51 1023 30.21 852 25.16 27.9 82.3 26 6.8 44.2 28.14 1.108
15:52 1023 30.21 852 25.16 27.8 82 27 7.5 45.5 27.95 1.1
15:53 1023 30.21 852 25.16 27.7 81.8 26 6.7 44.1 27.96 1.101
15:54 1023 30.21 852 25.16 27.6 81.7 29 8.2 46.7 27.9 1.098
15:55 1023 30.21 852 25.16 27.6 81.7 26 6.7 44 27.85 1.096
15:56 1023 30.21 852 25.16 27.6 81.8 26 6.6 44 27.91 1.099
15:57 1023 30.21 852 25.16 27.7 81.9 28 7.9 46.3 27.98 1.102
15:58 1023 30.21 852 25.16 27.9 82.2 25 6.1 43.1 28.14 1.108
15:59 1023 30.21 852 25.16 27.9 82.3 23 5.3 41.5 28.11 1.107
16:00 1023 30.21 852 25.16 27.9 82.3 24 6 42.9 28.16 1.109
16:01 1023 30.21 852 25.16 27.9 82.3 24 5.7 42.3 28.21 1.111
16:02 1023 30.21 852 25.16 28.1 82.5 25 6.3 43.4 28.28 1.113
16:03 1023 30.21 852 25.16 28.2 82.7 24 6.1 43 28.38 1.117
16:04 1023 30.21 852 25.16 28.3 82.9 25 6.8 44.2 28.43 1.119
16:05 1023 30.21 852 25.16 28.4 83.1 23 5.5 41.8 28.59 1.126
16:06 1023 30.21 852 25.16 28.5 83.2 26 7.2 45 28.63 1.127
16:07 1023 30.21 852 25.16 28.4 83.2 25 7.1 44.7 28.6 1.126
16:08 1023 30.21 852 25.16 28.4 83.1 25 6.7 44.1 28.61 1.126
16:09 1023 30.21 852 25.16 28.4 83.1 23 5.8 42.4 28.6 1.126
16:10 1023 30.21 852 25.16 28.4 83 24 6 42.8 28.6 1.126
16:11 1023 30.21 852 25.16 28.4 83.1 27 8 46.4 28.68 1.129
16:12 1023 30.21 852 25.16 28.6 83.5 21 4.8 40.6 28.86 1.136
16:13 1023 30.21 852 25.16 28.7 83.6 23 6 42.9 28.81 1.134
16:14 1023 30.21 852 25.16 28.6 83.4 21 4.4 39.9 28.72 1.131
16:15 1023 30.21 852 25.16 28.5 83.3 27 8.1 46.6 28.7 1.13
16:16 1023 30.21 852 25.16 28.6 83.5 24 6.1 43 28.82 1.135
16:17 1023 30.21 852 25.16 28.8 83.8 22 5.3 41.6 28.87 1.137
16:18 1023 30.21 852 25.16 28.8 83.8 20 3.9 39.1 28.91 1.138
16:19 1023 30.21 852 25.16 28.7 83.7 23 5.7 42.3 28.84 1.135
16:20 1023 30.21 852 25.16 28.6 83.5 22 5.1 41.2 28.77 1.133
16:21 1023 30.21 852 25.16 28.6 83.5 21 4.5 40.1 28.8 1.134
16:22 1023 30.21 852 25.16 28.6 83.5 20 3.6 38.4 28.91 1.138
16:23 1023 30.21 852 25.16 28.6 83.5 20 4 39.3 28.94 1.139
16:24 1023 30.21 852 25.16 28.8 83.8 21 4.7 40.5 28.92 1.139
16:25 1022 30.18 852 25.16 28.8 83.9 21 4.6 40.2 29.01 1.142
16:26 1022 30.18 852 25.16 28.8 83.8 23 5.9 42.6 29.06 1.144
16:27 1022 30.18 852 25.16 28.9 83.9 23 5.9 42.6 29.22 1.15
16:28 1022 30.18 852 25.16 29 84.2 25 7.2 44.9 29.37 1.156
16:29 1022 30.18 852 25.16 29 84.3 22 5.7 42.3 29.46 1.16
16:30 1022 30.18 852 25.16 29.1 84.3 28 9 48.2 29.35 1.156
16:31 1022 30.18 852 25.16 29.1 84.4 21 5.2 41.3 29.4 1.157
16:32 1022 30.18 852 25.16 29 84.2 28 8.8 47.8 29.35 1.156
16:33 1022 30.18 852 25.16 29 84.1 21 4.8 40.6 29.28 1.153
16:34 1022 30.18 852 25.16 28.8 83.8 22 5.5 41.9 29.03 1.143
16:35 1022 30.18 852 25.16 28.7 83.7 22 5.2 41.3 28.99 1.141
16:36 1022 30.18 852 25.16 28.8 83.8 24 6.7 44.1 28.92 1.139
16:37 1022 30.18 852 25.16 28.7 83.7 20 4.1 39.3 28.88 1.137
16:38 1022 30.18 852 25.16 28.7 83.6 22 5.2 41.4 28.81 1.134
16:39 1022 30.18 852 25.16 28.6 83.4 24 6.5 43.7 28.77 1.133
16:40 1022 30.18 852 25.16 28.6 83.5 22 5.2 41.3 28.75 1.132
16:41 1022 30.18 852 25.16 28.6 83.5 22 5.3 41.6 28.7 1.13
16:42 1022 30.18 852 25.16 28.7 83.6 20 3.7 38.6 28.7 1.13
16:43 1022 30.18 852 25.16 28.7 83.6 22 4.9 40.9 28.77 1.133
16:44 1022 30.18 852 25.16 28.8 83.8 21 4.4 39.9 28.88 1.137
16:45 1022 30.18 852 25.16 28.8 83.9 20 4.1 39.5 28.95 1.14
16:46 1022 30.18 852 25.16 28.8 83.9 23 6 42.8 28.93 1.139
16:47 1022 30.18 852 25.16 28.8 83.9 21 4.9 40.8 28.91 1.138
16:48 1022 30.18 852 25.16 28.9 83.9 23 5.9 42.6 28.91 1.138
16:49 1022 30.18 852 25.16 28.9 84 21 4.7 40.4 29 1.142
16:50 1022 30.18 852 25.16 28.9 84.1 26 7.5 45.6 28.97 1.141
16:51 1022 30.18 852 25.16 28.9 84.1 22 5.2 41.4 28.99 1.141
16:52 1022 30.18 852 25.16 28.8 83.9 22 5 41 28.88 1.137
16:53 1022 30.18 852 25.16 28.8 83.9 19 3.3 38 28.86 1.136
16:54 1022 30.18 852 25.16 28.8 83.9 23 5.8 42.5 28.79 1.133
16:55 1022 30.18 852 25.16 28.9 84 20 4.2 39.6 28.85 1.136
16:56 1022 30.18 852 25.16 28.8 83.9 21 4.8 40.6 28.8 1.134
16:57 1022 30.18 852 25.16 28.8 83.9 24 6.6 43.9 28.86 1.136
16:58 1022 30.18 852 25.16 28.9 84 25 7.2 45 28.94 1.139
16:59 1022 30.18 852 25.16 29 84.1 24 6.8 44.2 29.06 1.144
17:00 1022 30.18 852 25.16 29 84.1 24 6.5 43.6 29.02 1.143
17:01 1022 30.18 852 25.16 28.9 84.1 22 5.3 41.6 28.96 1.14
17:02 1022 30.18 852 25.16 28.8 83.9 24 6.4 43.6 28.92 1.139
17:03 1022 30.18 852 25.16 28.7 83.7 22 5.5 41.9 28.86 1.136
17:04 1022 30.18 852 25.16 28.7 83.6 23 6 42.9 28.89 1.137
17:05 1022 30.18 852 25.16 28.7 83.6 20 3.7 38.6 28.9 1.138
17:06 1022 30.18 852 25.16 28.7 83.7 20 4 39.2 28.94 1.139
17:07 1022 30.18 851 25.13 28.7 83.7 21 4.9 40.8 29 1.142
17:08 1022 30.18 852 25.16 28.8 83.8 18 2.6 36.7 29.1 1.146
17:09 1022 30.18 851 25.13 28.9 83.9 19 3.5 38.4 29.09 1.145
17:10 1022 30.18 851 25.13 28.9 84 22 5.7 42.2 29.14 1.147
17:11 1022 30.18 852 25.16 28.9 84.1 20 4.1 39.4 29.07 1.144
17:12 1022 30.18 852 25.16 28.9 84.1 19 3.3 38 29.06 1.144
17:13 1022 30.18 852 25.16 28.9 84.1 22 5.2 41.4 29.03 1.143
17:14 1022 30.18 851 25.13 28.9 84 25 7 44.6 29.04 1.143
17:15 1022 30.18 852 25.16 28.9 83.9 22 5.5 42 29.13 1.147
17:16 1022 30.18 852 25.16 29 84.1 20 3.7 38.7 29.24 1.151
17:17 1022 30.18 851 25.13 29 84.2 26 7.7 45.8 29.36 1.156
17:18 1022 30.18 851 25.13 29.1 84.3 21 5 41.1 29.4 1.157
17:19 1022 30.18 851 25.13 29 84.2 22 5.3 41.5 29.36 1.156
17:20 1022 30.18 851 25.13 28.9 84.1 22 5.6 42.1 29.29 1.153
17:21 1022 30.18 851 25.13 29 84.1 21 4.8 40.6 29.24 1.151
17:22 1022 30.18 851 25.13 29 84.3 21 5.1 41.2 29.23 1.151
17:23 1022 30.18 851 25.13 29.1 84.4 20 4.2 39.6 29.17 1.148
17:24 1022 30.18 851 25.13 29.1 84.3 23 6 42.8 29.19 1.149
17:25 1022 30.18 851 25.13 29.1 84.3 22 5.7 42.3 29.26 1.152
17:26 1022 30.18 851 25.13 29.1 84.3 21 4.7 40.5 29.19 1.149
17:27 1022 30.18 851 25.13 29 84.2 22 5.2 41.4 29.1 1.146
17:28 1022 30.18 851 25.13 28.9 84 22 5.6 42.1 29 1.142
17:29 1022 30.18 851 25.13 28.8 83.8 23 5.9 42.5 29.01 1.142
17:30 1022 30.18 851 25.13 28.8 83.9 20 4 39.2 29.02 1.143
17:31 1022 30.18 851 25.13 28.8 83.9 20 4 39.3 28.99 1.141
17:32 1022 30.18 851 25.13 28.8 83.9 21 4.4 39.9 28.97 1.141
17:33 1022 30.18 851 25.13 28.8 83.8 22 5.1 41.2 28.96 1.14
17:34 1022 30.18 851 25.13 28.8 83.8 21 4.8 40.7 28.88 1.137
17:35 1022 30.18 851 25.13 28.8 83.8 20 3.9 39 28.82 1.135
17:36 1022 30.18 851 25.13 28.8 83.8 23 5.9 42.6 28.8 1.134
17:37 1022 30.18 851 25.13 28.8 83.8 24 6.6 44 28.82 1.135
17:38 1022 30.18 851 25.13 28.8 83.8 19 3.6 38.4 28.83 1.135
17:39 1022 30.18 851 25.13 28.8 83.9 20 4 39.3 28.82 1.135
17:40 1022 30.18 851 25.13 28.8 83.8 18 2.7 36.8 28.89 1.137
17:41 1022 30.18 851 25.13 28.8 83.8 18 2.6 36.7 28.92 1.139
17:42 1022 30.18 851 25.13 28.8 83.9 22 5.4 41.8 28.91 1.138
17:43 1022 30.18 851 25.13 28.8 83.9 23 5.7 42.2 28.98 1.141
17:44 1022 30.18 851 25.13 28.9 84 20 4.2 39.5 29.05 1.144
17:45 1022 30.18 851 25.13 28.9 84.1 21 4.8 40.7 29.11 1.146
17:46 1022 30.18 851 25.13 29 84.1 21 4.9 40.8 29.07 1.144
17:47 1022 30.18 851 25.13 29 84.2 21 4.5 40.2 29.02 1.143
17:48 1022 30.18 851 25.13 29 84.1 23 5.8 42.4 28.98 1.141
17:49 1022 30.18 851 25.13 29 84.2 19 3.1 37.7 28.98 1.141
17:50 1022 30.18 851 25.13 28.9 84.1 23 6.3 43.4 29 1.142
17:51 1022 30.18 851 25.13 28.9 84.1 23 6.1 43 29.05 1.144
17:52 1022 30.18 851 25.13 29 84.1 24 6.4 43.6 29.15 1.148
17:53 1022 30.18 851 25.13 29 84.1 20 4.4 39.9 29.1 1.146
17:54 1022 30.18 851 25.13 29 84.1 24 6.4 43.5 29.04 1.143
17:55 1022 30.18 851 25.13 29 84.2 22 5.4 41.7 29.08 1.145
17:56 1022 30.18 851 25.13 29 84.2 18 2.9 37.1 29.04 1.143
17:57 1022 30.18 851 25.13 29 84.2 23 6 42.8 29.06 1.144
17:58 1022 30.18 851 25.13 29.1 84.4 23 6.5 43.6 29.17 1.148
17:59 1022 30.18 851 25.13 29.2 84.5 18 3.1 37.6 29.23 1.151
18:00 1022 30.18 851 25.13 29.2 84.6 23 6.4 43.6 29.26 1.152
18:01 1022 30.18 851 25.13 29.3 84.7 21 4.8 40.6 29.4 1.157
18:02 1022 30.18 851 25.13 29.2 84.6 16 1.6 34.8 29.38 1.157
18:03 1022 30.18 851 25.13 29.3 84.7 22 5.9 42.5 29.35 1.156
18:04 1022 30.18 851 25.13 29.3 84.8 18 2.9 37.2 29.4 1.157
18:05 1022 30.18 851 25.13 29.2 84.6 18 3 37.4 29.23 1.151
18:06 1022 30.18 851 25.13 29.1 84.4 20 4.3 39.8 29.11 1.146
18:07 1022 30.18 851 25.13 29 84.2 20 4.2 39.5 28.97 1.141
18:08 1022 30.18 851 25.13 28.9 84.1 19 3.3 38 28.95 1.14
18:09 1022 30.18 851 25.13 28.9 84.1 23 5.9 42.7 28.96 1.14
18:10 1022 30.18 851 25.13 29 84.2 21 4.8 40.6 29.01 1.142
18:11 1022 30.18 851 25.13 29 84.3 24 6.6 43.9 29.07 1.144
18:12 1022 30.18 851 25.13 29 84.2 22 5.4 41.7 29.09 1.145
18:13 1022 30.18 851 25.13 29 84.2 25 7.1 44.9 29.07 1.144
18:14 1022 30.18 851 25.13 28.9 84.1 22 5.1 41.3 29.01 1.142
18:15 1022 30.18 851 25.13 28.8 83.8 19 3.5 38.4 28.86 1.136
18:16 1022 30.18 851 25.13 28.6 83.6 21 4.7 40.5 28.79 1.133
18:17 1022 30.18 851 25.13 28.5 83.3 22 4.9 40.9 28.71 1.13
18:18 1022 30.18 851 25.13 28.4 83.1 23 5.3 41.5 28.6 1.126
18:19 1022 30.18 851 25.13 28.3 82.9 24 6.2 43.1 28.52 1.123
18:20 1022 30.18 851 25.13 28.2 82.8 25 6.5 43.7 28.51 1.122
18:21 1022 30.18 851 25.13 28.3 82.9 21 4.5 40.1 28.46 1.12
18:22 1022 30.18 851 25.13 28.2 82.8 22 5.1 41.2 28.5 1.122
18:23 1022 30.18 851 25.13 28.3 82.9 24 6 42.8 28.51 1.122
18:24 1022 30.18 851 25.13 28.3 82.9 22 4.7 40.4 28.5 1.122
18:25 1022 30.18 851 25.13 28.2 82.8 20 3.8 38.8 28.43 1.119
18:26 1022 30.18 851 25.13 28.2 82.7 21 4.1 39.5 28.47 1.121
18:27 1022 30.18 851 25.13 28.2 82.7 19 2.6 36.7 28.39 1.118
18:28 1022 30.18 851 25.13 28.3 82.9 20 3.2 37.8 28.5 1.122
18:29 1022 30.18 851 25.13 28.4 83.1 24 5.9 42.7 28.56 1.124
18:30 1022 30.18 851 25.13 28.4 83.2 22 5.2 41.4 28.62 1.127
18:31 1022 30.18 851 25.13 28.5 83.2 24 6 42.8 28.67 1.129
18:32 1022 30.18 851 25.13 28.5 83.2 22 5.2 41.4 28.67 1.129
18:33 1022 30.18 851 25.13 28.4 83.1 22 4.8 40.6 28.62 1.127
18:34 1022 30.18 851 25.13 28.3 82.9 21 4.2 39.5 28.53 1.123
18:35 1022 30.18 851 25.13 28.2 82.8 21 3.9 39 28.51 1.122
18:36 1022 30.18 851 25.13 28.1 82.6 22 4.8 40.6 28.44 1.12
18:37 1022 30.18 851 25.13 28.1 82.5 22 5 40.9 28.35 1.116
18:38 1022 30.18 851 25.13 28 82.4 21 3.8 38.8 28.35 1.116
18:39 1022 30.18 851 25.13 28 82.4 22 4.4 39.9 28.3 1.114
18:40 1022 30.18 851 25.13 27.9 82.3 20 2.9 37.2 28.24 1.112
18:41 1022 30.18 851 25.13 27.8 82.1 22 4.7 40.4 28.13 1.107
18:42 1022 30.18 851 25.13 27.7 81.9 21 3.6 38.5 28.09 1.106
18:43 1022 30.18 851 25.13 27.7 81.8 20 2.9 37.2 28.04 1.104
18:44 1022 30.18 851 25.13 27.7 81.9 19 2.2 35.9 28.04 1.104
18:45 1022 30.18 851 25.13 27.8 82 21 3.7 38.7 28.05 1.104
18:46 1022 30.18 851 25.13 27.7 81.8 22 4.1 39.3 27.99 1.102
18:47 1022 30.18 851 25.13 27.6 81.7 21 3.6 38.5 27.95 1.1
18:48 1022 30.18 851 25.13 27.6 81.6 23 4.6 40.3 27.9 1.098
18:49 1022 30.18 851 25.13 27.6 81.7 18 1.7 35.1 27.92 1.099
18:50 1022 30.18 851 25.13 27.6 81.7 20 2.7 36.8 27.92 1.099
18:51 1022 30.18 851 25.13 27.7 81.8 22 4.2 39.6 27.99 1.102
18:52 1022 30.18 851 25.13 27.6 81.7 22 4.1 39.4 27.99 1.102
18:53 1022 30.18 851 25.13 27.6 81.7 21 3.6 38.4 27.94 1.1
18:54 1022 30.18 851 25.13 27.5 81.6 24 5.5 41.9 27.91 1.099
18:55 1022 30.18 851 25.13 27.5 81.4 26 6.4 43.5 27.87 1.097
18:56 1022 30.18 851 25.13 27.4 81.3 26 6.3 43.3 27.73 1.092
18:57 1022 30.18 851 25.13 27.4 81.3 21 3.4 38.1 27.68 1.09
18:58 1022 30.18 851 25.13 27.4 81.3 24 5.4 41.8 27.64 1.088
18:59 1022 30.18 851 25.13 27.3 81.2 23 4.7 40.5 27.56 1.085
19:00 1022 30.18 851 25.13 27.3 81.2 24 5.4 41.7 27.56 1.085
19:01 1022 30.18 851 25.13 27.3 81.2 25 6 42.8 27.6 1.087
19:02 1022 30.18 851 25.13 27.3 81.1 22 3.7 38.7 27.58 1.086
19:03 1022 30.18 851 25.13 27.3 81.1 22 4.1 39.3 27.55 1.085
19:04 1022 30.18 851 25.13 27.3 81.1 24 5.4 41.7 27.55 1.085
19:05 1022 30.18 851 25.13 27.2 81 26 6.6 43.8 27.49 1.082
19:06 1022 30.18 851 25.13 27.2 80.9 25 5.9 42.6 27.39 1.078
19:07 1022 30.18 851 25.13 27.1 80.8 22 3.6 38.5 27.33 1.076
19:08 1022 30.18 851 25.13 27.1 80.8 27 6.8 44.2 27.36 1.077
19:09 1022 30.18 851 25.13 27 80.7 27 6.5 43.8 27.32 1.076
19:10 1022 30.18 851 25.13 27 80.5 22 3.9 39.1 27.23 1.072
19:11 1022 30.18 851 25.13 27 80.6 24 5.1 41.2 27.23 1.072
19:12 1022 30.18 851 25.13 26.9 80.5 25 5.6 42.2 27.19 1.07
19:13 1022 30.18 851 25.13 26.9 80.4 25 5.7 42.3 27.16 1.069
19:14 1022 30.18 851 25.13 26.8 80.2 24 5 41.1 27.06 1.065
19:15 1022 30.18 851 25.13 26.7 80.1 24 5 41.1 27.02 1.064
19:16 1022 30.18 851 25.13 26.8 80.2 23 4.3 39.8 27.01 1.063
19:17 1022 30.18 851 25.13 26.8 80.2 23 4.2 39.5 27.02 1.064
19:18 1022 30.18 851 25.13 26.8 80.2 24 4.9 40.8 27.03 1.064
19:19 1022 30.18 851 25.13 26.8 80.2 21 2.6 36.7 27.08 1.066
19:20 1022 30.18 851 25.13 26.9 80.4 22 3.6 38.5 27.21 1.071
19:21 1022 30.18 851 25.13 27 80.6 25 5.5 41.9 27.34 1.076
19:22 1022 30.18 851 25.13 27 80.5 26 6.1 42.9 27.33 1.076
19:23 1022 30.18 851 25.13 26.9 80.4 26 5.8 42.5 27.29 1.074
19:24 1022 30.18 851 25.13 26.9 80.3 26 6.2 43.1 27.25 1.073
19:25 1022 30.18 851 25.13 26.8 80.2 27 6.6 43.9 27.16 1.069
19:26 1022 30.18 851 25.13 26.7 80 28 7.2 44.9 27.08 1.066
19:27 1022 30.18 851 25.13 26.6 79.9 29 7.2 44.9 27.01 1.063
19:28 1022 30.18 851 25.13 26.5 79.6 28 6.7 44.1 26.9 1.059
19:29 1022 30.18 851 25.13 26.4 79.4 30 7.6 45.6 26.84 1.057
19:30 1022 30.18 851 25.13 26.2 79.2 33 8.9 48.1 26.72 1.052
19:31 1022 30.18 851 25.13 26.2 79.1 31 8.2 46.7 26.7 1.051
19:32 1022 30.18 851 25.13 26.1 79.1 30 7.4 45.3 26.62 1.048
19:33 1022 30.18 851 25.13 26.2 79.2 37 10.4 50.7 26.66 1.05
19:34 1022 30.18 851 25.13 26.2 79.2 33 8.8 47.9 26.76 1.054
19:35 1022 30.18 851 25.13 26.2 79.2 36 10.1 50.1 26.67 1.05
19:36 1022 30.18 851 25.13 26.2 79.2 37 10.7 51.2 26.74 1.053
19:37 1022 30.18 851 25.13 26.2 79.2 35 9.7 49.4 26.7 1.051
19:38 1022 30.18 851 25.13 26.2 79.1 35 10 49.9 26.63 1.048
19:39 1022 30.18 851 25.13 26.1 79 35 9.7 49.5 26.59 1.047
19:40 1022 30.18 851 25.13 26 78.8 34 9 48.1 26.48 1.043
19:41 1022 30.18 851 25.13 25.9 78.6 32 8.2 46.7 26.34 1.037
19:42 1022 30.18 851 25.13 25.8 78.5 34 9 48.2 26.24 1.033
19:43 1022 30.18 851 25.13 25.7 78.2 33 8.4 47.2 26.12 1.028
19:44 1022 30.18 851 25.13 25.5 77.9 33 8.3 46.9 26 1.024
19:45 1022 30.18 851 25.13 25.4 77.6 37 9.9 49.8 25.82 1.017
19:46 1022 30.18 851 25.13 25.2 77.4 33 8.2 46.7 25.66 1.01
19:47 1022 30.18 851 25.13 25 77.1 34 8.4 47.1 25.44 1.002
19:48 1022 30.18 851 25.13 24.8 76.7 34 8.1 46.6 25.31 0.996
19:49 1022 30.18 851 25.13 24.7 76.4 35 8.4 47.1 25.04 0.986
19:50 1022 30.18 851 25.13 24.5 76 36 8.8 47.8 24.92 0.981
19:51 1022 30.18 851 25.13 24.2 75.6 33 7.3 45.2 24.73 0.974
19:52 1022 30.18 851 25.13 24.1 75.4 31 6.4 43.4 24.52 0.965
19:53 1022 30.18 851 25.13 24.1 75.4 35 8.1 46.6 24.42 0.961
19:54 1022 30.18 851 25.13 24 75.2 36 8.1 46.6 24.38 0.96
19:55 1022 30.18 851 25.13 23.9 75.1 35 7.6 45.7 24.32 0.957
19:56 1022 30.18 851 25.13 23.9 74.9 36 8.1 46.6 24.25 0.955
19:57 1022 30.18 851 25.13 23.7 74.7 37 8.3 46.9 24.16 0.951
19:58 1022 30.18 851 25.13 23.7 74.6 35 7.4 45.3 24.05 0.947
19:59 1022 30.18 851 25.13 23.7 74.7 35 7.4 45.3 24.03 0.946
20:00 1022 30.18 851 25.13 23.7 74.6 37 8.2 46.7 24 0.945
20:01 1022 30.18 851 25.13 23.6 74.5 38 8.8 47.8 23.95 0.943
20:02 1022 30.18 851 25.13 23.5 74.3 39 9 48.3 23.87 0.94
20:03 1022 30.18 851 25.13 23.3 73.9 42 9.7 49.5 23.72 0.934
20:04 1022 30.18 851 25.13 23 73.5 42 9.5 49.1 23.43 0.922
20:05 1022 30.18 851 25.13 22.9 73.2 44 10.1 50.2 23.24 0.915
20:06 1022 30.18 851 25.13 22.7 72.9 44 10.1 50.2 23.05 0.907
20:07 1022 30.18 851 25.13 22.6 72.7 45 10.4 50.7 22.91 0.902
20:08 1022 30.18 851 25.13 22.5 72.4 43 9.5 49.2 22.77 0.896
20:09 1022 30.18 851 25.13 22.4 72.3 44 9.8 49.6 22.65 0.892
20:10 1022 30.18 851 25.13 22.3 72.2 45 9.9 49.8 22.6 0.89
20:11 1022 30.18 851 25.13 22.2 72 47 10.5 50.9 22.53 0.887
20:12 1022 30.18 851 25.13 22.1 71.8 44 9.4 48.9 22.38 0.881
20:13 1022 30.18 851 25.13 22.1 71.7 42 8.8 47.9 22.35 0.88
20:14 1022 30.18 851 25.13 22.1 71.8 41 8.3 47 22.4 0.882
20:15 1022 30.18 851 25.13 22.2 72 41 8.5 47.3 22.47 0.885
20:16 1022 30.18 851 25.13 22.3 72.1 40 8.2 46.8 22.52 0.887
20:17 1022 30.18 851 25.13 22.3 72.2 40 8.4 47.2 22.56 0.888
20:18 1022 30.18 851 25.13 22.2 72 39 7.8 46.1 22.53 0.887
20:19 1022 30.18 851 25.13 22.2 72 39 7.8 46 22.41 0.882
20:20 1022 30.18 851 25.13 22.1 71.8 40 8 46.3 22.39 0.881
20:21 1022 30.18 851 25.13 22.1 71.7 40 8.1 46.5 22.22 0.875
20:22 1022 30.18 851 25.13 22 71.5 39 7.5 45.5 22.17 0.873
20:23 1022 30.18 851 25.13 21.9 71.4 39 7.7 45.8 22.17 0.873
20:24 1022 30.18 851 25.13 21.9 71.4 39 7.5 45.5 22.16 0.872
20:25 1022 30.18 851 25.13 21.9 71.4 39 7.4 45.4 22.14 0.872
20:26 1022 30.18 851 25.13 21.9 71.4 41 8.1 46.5 22.21 0.874
20:27 1022 30.18 851 25.13 21.7 71 42 8.4 47.2 21.99 0.866
20:28 1022 30.18 851 25.13 21.4 70.5 43 8.5 47.2 21.73 0.856
20:29 1022 30.18 851 25.13 21.2 70.1 41 7.5 45.6 21.44 0.844
20:30 1022 30.18 851 25.13 21.1 70 43 8.1 46.6 21.37 0.841
20:31 1022 30.18 851 25.13 21.1 70 42 7.9 46.1 21.37 0.841
20:32 1022 30.18 851 25.13 21.1 70 43 8.3 46.9 21.34 0.84
20:33 1022 30.18 851 25.13 21.1 69.9 41 7.5 45.4 21.25 0.837
20:34 1022 30.18 852 25.16 21.1 70 45 8.8 47.8 21.38 0.842
20:35 1022 30.18 852 25.16 20.8 69.4 45 8.6 47.4 21.1 0.831
20:36 1022 30.18 852 25.16 20.6 69 44 8.1 46.7 20.91 0.823
20:37 1022 30.18 852 25.16 20.5 68.9 45 8.3 47 20.8 0.819
20:38 1022 30.18 852 25.16 20.4 68.7 45 8.2 46.8 20.61 0.811
20:39 1022 30.18 852 25.16 20.2 68.4 45 8.2 46.8 20.51 0.807
20:40 1022 30.18 852 25.16 20.1 68.2 46 8.4 47.1 20.37 0.802
20:41 1022 30.18 852 25.16 20.1 68.1 46 8.2 46.8 20.28 0.798
20:42 1022 30.18 852 25.16 20 68 46 8.3 47 20.25 0.797
20:43 1022 30.18 852 25.16 19.9 67.9 47 8.5 47.2 20.2 0.795
20:44 1022 30.18 852 25.16 19.8 67.7 47 8.3 46.9 20.1 0.791
20:45 1022 30.18 852 25.16 19.7 67.4 49 8.7 47.6 19.92 0.784
20:46 1022 30.18 852 25.16 19.5 67.1 50 8.9 48 19.85 0.781
20:47 1022 30.18 852 25.16 19.3 66.8 50 8.8 47.8 19.67 0.774
20:48 1022 30.18 852 25.16 19.3 66.7 48 8.2 46.8 19.56 0.77
20:49 1022 30.18 852 25.16 19.4 66.8 43 6.5 43.7 19.63 0.773
20:50 1023 30.21 852 25.16 19.8 67.6 45 7.6 45.7 19.92 0.784
20:51 1023 30.21 852 25.16 19.9 67.8 41 6.5 43.7 20.13 0.793
20:52 1023 30.21 852 25.16 20.1 68.2 43 7.2 44.9 20.29 0.799
20:53 1023 30.21 852 25.16 20.2 68.4 40 6.5 43.7 20.43 0.804
20:54 1023 30.21 852 25.16 20.3 68.5 44 7.7 45.9 20.5 0.807
20:55 1023 30.21 852 25.16 20.3 68.5 45 8.1 46.6 20.49 0.807
20:56 1023 30.21 852 25.16 20.1 68.1 43 7.3 45.2 20.38 0.802
20:57 1023 30.21 852 25.16 20.2 68.3 40 6.2 43.1 20.36 0.802
20:58 1023 30.21 852 25.16 20.1 68.2 44 7.7 45.8 20.33 0.8
20:59 1023 30.21 852 25.16 19.8 67.6 45 7.7 45.9 20.03 0.789
21:00 1023 30.21 852 25.16 19.6 67.3 45 7.6 45.7 19.84 0.781
21:01 1023 30.21 852 25.16 19.4 67 48 8.3 47 19.67 0.774
21:02 1023 30.21 852 25.16 19 66.2 51 8.7 47.7 19.31 0.76
21:03 1023 30.21 852 25.16 18.5 65.4 52 8.5 47.4 18.9 0.744
21:04 1023 30.21 852 25.16 18.3 64.9 52 8.3 46.9 18.61 0.733
21:05 1023 30.21 852 25.16 18.2 64.7 53 8.5 47.4 18.47 0.727
21:06 1023 30.21 852 25.16 18.1 64.5 53 8.4 47.1 18.32 0.721
21:07 1023 30.21 852 25.16 17.9 64.1 53 8.4 47 18.15 0.715
21:08 1023 30.21 852 25.16 17.7 63.9 53 8.3 46.9 18.03 0.71
21:09 1023 30.21 852 25.16 17.7 63.8 54 8.4 47.1 17.96 0.707
21:10 1023 30.21 852 25.16 17.6 63.6 55 8.6 47.4 17.84 0.702
21:11 1023 30.21 852 25.16 17.5 63.4 55 8.5 47.3 17.72 0.698
21:12 1023 30.21 852 25.16 17.4 63.3 56 8.6 47.6 17.67 0.696
21:13 1023 30.21 852 25.16 17.3 63.1 56 8.5 47.3 17.58 0.692
21:14 1023 30.21 852 25.16 17.2 62.9 56 8.5 47.3 17.52 0.69
21:15 1023 30.21 852 25.16 17.2 62.9 55 8.3 46.9 17.48 0.688
21:16 1023 30.21 852 25.16 17.2 63 55 8.2 46.8 17.55 0.691
21:17 1023 30.21 852 25.16 17.2 63 55 8.1 46.6 17.52 0.69
21:18 1023 30.21 852 25.16 17.2 62.9 54 7.9 46.3 17.47 0.688
21:19 1023 30.21 852 25.16 17.2 62.9 54 7.8 46.1 17.5 0.689
21:20 1023 30.21 852 25.16 17.2 63 54 7.9 46.3 17.5 0.689
21:21 1023 30.21 852 25.16 17.1 62.8 55 8.2 46.7 17.41 0.685
21:22 1023 30.21 852 25.16 17 62.5 56 8.1 46.6 17.24 0.679
21:23 1023 30.21 852 25.16 16.9 62.4 57 8.3 47 17.15 0.675
21:24 1023 30.21 852 25.16 16.7 62.1 59 8.7 47.6 17.03 0.67
21:25 1023 30.21 852 25.16 16.4 61.6 59 8.4 47.2 16.83 0.663
21:26 1023 30.21 852 25.16 16.3 61.3 59 8.4 47.2 16.64 0.655
21:27 1023 30.21 852 25.16 16.1 61 61 8.6 47.4 16.53 0.651
21:28 1023 30.21 852 25.16 15.9 60.7 61 8.5 47.3 16.3 0.642
21:29 1023 30.21 852 25.16 15.8 60.5 62 8.6 47.5 16.15 0.636
21:30 1023 30.21 852 25.16 15.8 60.5 60 8.2 46.8 16.17 0.637
21:31 1023 30.21 852 25.16 15.9 60.5 60 8.1 46.7 16.2 0.638
21:32 1023 30.21 852 25.16 15.9 60.5 59 8 46.4 16.19 0.637
21:33 1023 30.21 852 25.16 16 60.8 57 7.6 45.7 16.32 0.643
21:34 1023 30.21 852 25.16 16.2 61.1 57 7.8 46 16.47 0.648
21:35 1023 30.21 852 25.16 16.2 61.2 56 7.5 45.5 16.54 0.651
21:36 1023 30.21 852 25.16 16.3 61.4 57 7.9 46.2 16.63 0.655
21:37 1023 30.21 852 25.16 16.2 61.2 59 8.2 46.7 16.55 0.652
21:38 1023 30.21 852 25.16 16 60.8 59 8.1 46.7 16.37 0.644
21:39 1023 30.21 852 25.16 15.9 60.7 59 8.1 46.6 16.29 0.641
21:40 1023 30.21 852 25.16 15.9 60.6 60 8.2 46.8 16.24 0.639
21:41 1023 30.21 852 25.16 15.8 60.4 61 8.2 46.8 16.11 0.634
21:42 1023 30.21 852 25.16 15.7 60.3 60 8 46.4 16.05 0.632
21:43 1023 30.21 852 25.16 15.7 60.2 60 8 46.3 15.99 0.63
21:44 1023 30.21 852 25.16 15.6 60.1 60 7.9 46.3 15.98 0.629
21:45 1023 30.21 852 25.16 15.6 60 60 7.8 46.1 15.97 0.629
21:46 1023 30.21 852 25.16 15.6 60 59 7.7 45.9 15.9 0.626
21:47 1023 30.21 852 25.16 15.6 60 59 7.6 45.7 15.91 0.626
21:48 1023 30.21 852 25.16 15.6 60 59 7.6 45.6 15.91 0.626
21:49 1023 30.21 852 25.16 15.5 59.9 59 7.6 45.7 15.87 0.625
21:50 1023 30.21 852 25.16 15.5 59.9 58 7.4 45.2 15.86 0.624
21:51 1023 30.21 852 25.16 15.7 60.2 55 6.8 44.2 16 0.63
21:52 1023 30.21 852 25.16 15.9 60.7 55 7 44.6 16.26 0.64
21:53 1023 30.21 852 25.16 16 60.8 55 7.2 44.9 16.35 0.644
21:54 1023 30.21 852 25.16 16 60.7 56 7.2 45 16.28 0.641
21:55 1023 30.21 852 25.16 15.9 60.5 56 7.2 44.9 16.21 0.638
21:56 1023 30.21 852 25.16 15.8 60.4 56 7.2 45 16.13 0.635
21:57 1023 30.21 852 25.16 15.7 60.3 57 7.4 45.4 16.06 0.632
21:58 1023 30.21 852 25.16 15.6 60 58 7.5 45.5 15.95 0.628
21:59 1023 30.21 852 25.16 15.3 59.5 58 7.2 44.9 15.69 0.618
22:00 1023 30.21 852 25.16 15.2 59.4 58 7.1 44.8 15.64 0.616
22:01 1023 30.21 852 25.16 15.2 59.4 58 7.2 44.9 15.59 0.614
22:02 1023 30.21 852 25.16 15.1 59.3 59 7.2 44.9 15.53 0.611
22:03 1023 30.21 852 25.16 15.1 59.1 59 7.1 44.8 15.39 0.606
22:04 1023 30.21 852 25.16 15 58.9 59 7.1 44.7 15.34 0.604
22:05 1023 30.21 852 25.16 14.9 58.9 59 7 44.6 15.27 0.601
22:06 1023 30.21 852 25.16 14.9 58.8 59 7.1 44.7 15.23 0.6
22:07 1023 30.21 852 25.16 14.8 58.7 59 6.9 44.4 15.14 0.596
22:08 1023 30.21 852 25.16 14.8 58.7 58 6.8 44.2 15.16 0.597
22:09 1023 30.21 852 25.16 14.9 58.7 58 6.6 43.9 15.2 0.598
22:10 1023 30.21 852 25.16 15.1 59.1 56 6.5 43.8 15.41 0.607
22:11 1023 30.21 852 25.16 15.3 59.5 56 6.6 43.8 15.56 0.613
22:12 1023 30.21 852 25.16 15.4 59.7 55 6.5 43.7 15.69 0.618
22:13 1023 30.21 852 25.16 15.4 59.8 55 6.6 43.9 15.77 0.621
22:14 1023 30.21 852 25.16 15.4 59.8 56 6.7 44 15.76 0.62
22:15 1023 30.21 852 25.16 15.4 59.7 55 6.6 43.9 15.73 0.619
22:16 1023 30.21 852 25.16 15.4 59.7 56 6.7 44.1 15.73 0.619
22:17 1023 30.21 852 25.16 15.3 59.5 57 6.8 44.3 15.63 0.615
22:18 1023 30.21 852 25.16 15.1 59.2 57 6.8 44.2 15.45 0.608
22:19 1023 30.21 852 25.16 14.9 58.8 59 6.9 44.5 15.27 0.601
22:20 1023 30.21 852 25.16 14.7 58.5 59 6.8 44.3 15.1 0.594
22:21 1023 30.21 852 25.16 14.7 58.4 60 6.9 44.5 15.02 0.591
22:22 1023 30.21 852 25.16 14.6 58.3 58 6.6 43.9 14.97 0.589
22:23 1023 30.21 852 25.16 14.6 58.3 58 6.6 43.9 14.97 0.589
22:24 1023 30.21 852 25.16 14.7 58.5 57 6.5 43.7 15.17 0.597
22:25 1023 30.21 852 25.16 15 59 57 6.6 43.9 15.4 0.606
22:26 1023 30.21 852 25.16 15.2 59.3 57 6.7 44 15.49 0.61
22:27 1023 30.21 852 25.16 15.2 59.3 57 6.9 44.4 15.52 0.611
22:28 1023 30.21 852 25.16 15.1 59.3 57 6.7 44.1 15.45 0.608
22:29 1023 30.21 852 25.16 15.2 59.3 57 6.7 44.1 15.47 0.609
22:30 1023 30.21 852 25.16 15.2 59.4 56 6.6 43.9 15.55 0.612
22:31 1023 30.21 852 25.16 15.3 59.5 54 6.3 43.3 15.69 0.618
22:32 1023 30.21 852 25.16 15.6 60 52 6 42.7 15.91 0.626
22:33 1023 30.21 852 25.16 15.8 60.5 51 5.7 42.3 16.22 0.639
22:34 1023 30.21 852 25.16 16.1 61 51 6.1 43 16.4 0.646
22:35 1023 30.21 852 25.16 16.3 61.3 50 5.9 42.5 16.62 0.654
22:36 1023 30.21 852 25.16 16.5 61.8 50 6.2 43.2 16.79 0.661
22:37 1023 30.21 852 25.16 16.6 61.8 50 6.1 43 16.82 0.662
22:38 1023 30.21 852 25.16 16.5 61.7 50 6.3 43.4 16.77 0.66
22:39 1023 30.21 852 25.16 16.4 61.6 50 6.1 43 16.74 0.659
22:40 1023 30.21 852 25.16 16.5 61.7 49 5.9 42.7 16.78 0.661
22:41 1023 30.21 852 25.16 16.5 61.7 49 5.8 42.4 16.83 0.663
22:42 1023 30.21 852 25.16 16.6 61.8 48 5.7 42.3 16.85 0.663
22:43 1023 30.21 852 25.16 16.7 62 46 5.2 41.4 16.99 0.669
22:44 1023 30.21 852 25.16 16.9 62.4 45 5 41.1 17.16 0.676
22:45 1023 30.21 852 25.16 17.1 62.9 43 4.6 40.2 17.42 0.686
22:46 1023 30.21 852 25.16 17.4 63.4 42 4.6 40.3 17.72 0.698
22:47 1023 30.21 852 25.16 17.7 63.9 39 3.8 38.9 17.93 0.706
22:48 1023 30.21 852 25.16 17.9 64.3 40 4.3 39.7 18.15 0.715
22:49 1023 30.21 852 25.16 18.2 64.7 39 4.1 39.3 18.4 0.724
22:50 1023 30.21 852 25.16 18.4 65.2 38 4 39.2 18.65 0.734
22:51 1023 30.21 852 25.16 18.5 65.4 37 3.6 38.4 18.78 0.739
22:52 1023 30.21 852 25.16 18.8 65.8 36 3.5 38.3 19 0.748
22:53 1023 30.21 852 25.16 19 66.2 37 4 39.2 19.2 0.756
22:54 1023 30.21 852 25.16 19 66.1 36 3.9 39 19.23 0.757
22:55 1023 30.21 852 25.16 18.9 66 38 4.6 40.2 19.14 0.754
22:56 1023 30.21 852 25.16 18.8 65.8 38 4.3 39.7 19.03 0.749
22:57 1023 30.21 852 25.16 18.7 65.6 39 4.5 40.1 18.94 0.746
22:58 1023 30.21 852 25.16 18.4 65.2 40 4.8 40.7 18.75 0.738
22:59 1023 30.21 852 25.16 18.2 64.7 42 5.2 41.4 18.5 0.728
23:00 1023 30.21 852 25.16 17.8 64.1 44 5.5 41.8 18.19 0.716
23:01 1023 30.21 852 25.16 17.5 63.5 45 5.5 41.8 17.82 0.702
23:02 1023 30.21 852 25.16 17.1 62.8 46 5.4 41.7 17.53 0.69
23:03 1023 30.21 852 25.16 17 62.5 46 5.2 41.4 17.33 0.682
23:04 1023 30.21 852 25.16 16.9 62.3 46 5.2 41.4 17.17 0.676
23:05 1023 30.21 852 25.16 16.8 62.2 44 4.5 40.1 17.1 0.673
23:06 1023 30.21 852 25.16 16.8 62.3 44 4.8 40.6 17.12 0.674
23:07 1023 30.21 852 25.16 16.9 62.3 44 4.7 40.5 17.18 0.676
23:08 1023 30.21 852 25.16 16.9 62.4 44 4.8 40.6 17.26 0.68
23:09 1023 30.21 852 25.16 16.9 62.5 44 4.8 40.7 17.26 0.68
23:10 1023 30.21 852 25.16 16.9 62.4 43 4.5 40.1 17.26 0.68
23:11 1023 30.21 852 25.16 17 62.5 44 4.6 40.3 17.28 0.68
23:12 1023 30.21 852 25.16 17 62.6 43 4.4 40 17.33 0.682
23:13 1023 30.21 852 25.16 17 62.6 43 4.3 39.8 17.33 0.682
23:14 1023 30.21 852 25.16 17.1 62.7 42 4 39.3 17.39 0.685
23:15 1023 30.21 852 25.16 17.2 62.9 42 4.3 39.8 17.52 0.69
23:16 1023 30.21 852 25.16 17.2 62.9 42 4.3 39.7 17.53 0.69
23:17 1023 30.21 852 25.16 17.2 62.9 43 4.6 40.2 17.51 0.689
23:18 1023 30.21 852 25.16 17.1 62.8 43 4.5 40.1 17.46 0.687
23:19 1023 30.21 852 25.16 17 62.6 44 4.7 40.4 17.36 0.683
23:20 1023 30.21 852 25.16 16.9 62.4 43 4.4 39.9 17.24 0.679
23:21 1023 30.21 852 25.16 16.9 62.4 44 4.6 40.2 17.23 0.678
23:22 1023 30.21 852 25.16 16.9 62.4 43 4.5 40.1 17.26 0.68
23:23 1023 30.21 852 25.16 16.9 62.4 43 4.3 39.7 17.21 0.678
23:24 1023 30.21 852 25.16 17 62.5 43 4.5 40.1 17.21 0.678
23:25 1023 30.21 852 25.16 16.9 62.5 44 4.6 40.2 17.21 0.678
23:26 1023 30.21 852 25.16 16.8 62.3 45 4.8 40.7 17.13 0.674
23:27 1023 30.21 852 25.16 16.7 62.1 45 4.8 40.7 16.98 0.669
23:28 1023 30.21 852 25.16 16.6 61.8 46 4.9 40.8 16.89 0.665
23:29 1023 30.21 852 25.16 16.4 61.6 45 4.5 40.1 16.76 0.66
23:30 1023 30.21 852 25.16 16.5 61.7 45 4.7 40.4 16.77 0.66
23:31 1023 30.21 852 25.16 16.5 61.7 45 4.8 40.6 16.77 0.66
23:32 1023 30.21 852 25.16 16.4 61.5 47 5.1 41.2 16.7 0.657
23:33 1023 30.21 852 25.16 16.2 61.1 48 5.4 41.7 16.48 0.649
23:34 1023 30.21 852 25.16 15.9 60.6 48 5.1 41.2 16.25 0.64
23:35 1023 30.21 852 25.16 15.7 60.3 49 5.2 41.3 16.11 0.634
23:36 1023 30.21 852 25.16 15.6 60.1 50 5.4 41.7 15.97 0.629
23:37 1023 30.21 852 25.16 15.4 59.8 51 5.5 41.9 15.77 0.621
23:38 1023 30.21 852 25.16 15.3 59.5 51 5.3 41.5 15.64 0.616
23:39 1023 30.21 852 25.16 15.2 59.3 52 5.4 41.7 15.52 0.611
23:40 1023 30.21 852 25.16 15 59 53 5.5 41.9 15.37 0.605
23:41 1023 30.21 852 25.16 14.9 58.7 52 5.2 41.4 15.2 0.598
23:42 1023 30.21 852 25.16 14.8 58.6 52 5 41.1 15.13 0.596
23:43 1023 30.21 852 25.16 14.8 58.6 52 5.1 41.1 15.14 0.596
23:44 1023 30.21 852 25.16 14.8 58.7 52 5 41 15.18 0.598
23:45 1023 30.21 852 25.16 14.8 58.7 51 5 41 15.16 0.597
23:46 1023 30.21 852 25.16 14.9 58.7 52 5.1 41.2 15.19 0.598
23:47 1023 30.21 852 25.16 14.9 58.8 52 5.3 41.5 15.21 0.599
23:48 1023 30.21 852 25.16 14.8 58.6 53 5.4 41.7 15.14 0.596
23:49 1023 30.21 852 25.16 14.5 58.1 56 5.8 42.4 14.89 0.586
23:50 1023 30.21 852 25.16 14.2 57.5 59 6.3 43.3 14.59 0.574
23:51 1023 30.21 852 25.16 13.9 57 60 6.2 43.2 14.33 0.564
23:52 1023 30.21 852 25.16 13.8 56.8 59 5.9 42.5 14.15 0.557
23:53 1023 30.21 852 25.16 13.8 56.8 58 5.7 42.2 14.12 0.556
23:54 1023 30.21 852 25.16 13.9 57 57 5.5 41.9 14.19 0.559
23:55 1023 30.21 852 25.16 13.9 57.1 57 5.5 42 14.27 0.562
23:56 1023 30.21 852 25.16 14 57.2 57 5.7 42.2 14.34 0.565
23:57 1023 30.21 852 25.16 14 57.2 56 5.6 42 14.38 0.566
23:58 1023 30.21 852 25.16 14 57.3 56 5.4 41.8 14.41 0.567
23:59 1023 30.21 852 25.16 14.1 57.3 57 5.7 42.2 14.42 0.568
24:00 1023 30.21 852 25.16 14 57.1 56 5.5 41.9 14.37 0.566